<?xml version="1.0" encoding="UTF-8" standalone="no" ?>
<gpx xmlns="http://www.topografix.com/GPX/1/1" xmlns:xsi="http://www.w3.org/2001/XMLSchema-instance" xsi:schemaLocation="http://www.topografix.com/GPX/1/1 http://www.topografix.com/GPX/1/1/gpx.xsd" version="1.1" creator="VisuGPX - https://www.visugpx.com">
  <metadata>
    <name>lusignan</name>
    <desc><![CDATA[sortie sur lusignan, circuit physique]]></desc>
  </metadata>
  <trk>
    <name><![CDATA[22-SEP-13 08:52:52]]></name>
    <trkseg>
      <trkpt lat="44.27092" lon="0.52509">
        <ele>167.89</ele>
        <time>2013-09-22T06:14:33Z</time>
      </trkpt>
      <trkpt lat="44.27092" lon="0.52509">
        <ele>167.89</ele>
        <time>2013-09-22T06:14:34Z</time>
      </trkpt>
      <trkpt lat="44.27092" lon="0.52509">
        <ele>165</ele>
        <time>2013-09-22T06:14:36Z</time>
      </trkpt>
      <trkpt lat="44.27093" lon="0.52509">
        <ele>168.37</ele>
        <time>2013-09-22T06:14:41Z</time>
      </trkpt>
      <trkpt lat="44.27093" lon="0.5251">
        <ele>165</ele>
        <time>2013-09-22T06:14:48Z</time>
      </trkpt>
      <trkpt lat="44.27093" lon="0.5251">
        <ele>168.37</ele>
        <time>2013-09-22T06:14:49Z</time>
      </trkpt>
      <trkpt lat="44.27093" lon="0.5251">
        <ele>164.04</ele>
        <time>2013-09-22T06:14:51Z</time>
      </trkpt>
      <trkpt lat="44.27093" lon="0.5251">
        <ele>170.29</ele>
        <time>2013-09-22T06:14:52Z</time>
      </trkpt>
      <trkpt lat="44.27093" lon="0.52511">
        <ele>165.48</ele>
        <time>2013-09-22T06:14:53Z</time>
      </trkpt>
      <trkpt lat="44.27093" lon="0.52511">
        <ele>171.25</ele>
        <time>2013-09-22T06:14:59Z</time>
      </trkpt>
      <trkpt lat="44.27093" lon="0.52511">
        <ele>167.41</ele>
        <time>2013-09-22T06:15:00Z</time>
      </trkpt>
      <trkpt lat="44.27092" lon="0.5251">
        <ele>166.93</ele>
        <time>2013-09-22T06:15:11Z</time>
      </trkpt>
      <trkpt lat="44.27083" lon="0.52502">
        <ele>166.93</ele>
        <time>2013-09-22T06:15:22Z</time>
      </trkpt>
      <trkpt lat="44.27083" lon="0.52502">
        <ele>167.41</ele>
        <time>2013-09-22T06:15:28Z</time>
      </trkpt>
      <trkpt lat="44.27077" lon="0.52504">
        <ele>166.93</ele>
        <time>2013-09-22T06:15:33Z</time>
      </trkpt>
      <trkpt lat="44.2705" lon="0.52547">
        <ele>163.56</ele>
        <time>2013-09-22T06:15:45Z</time>
      </trkpt>
      <trkpt lat="44.27043" lon="0.52561">
        <ele>162.6</ele>
        <time>2013-09-22T06:15:48Z</time>
      </trkpt>
      <trkpt lat="44.27028" lon="0.5256">
        <ele>161.64</ele>
        <time>2013-09-22T06:15:52Z</time>
      </trkpt>
      <trkpt lat="44.27013" lon="0.52547">
        <ele>163.08</ele>
        <time>2013-09-22T06:15:56Z</time>
      </trkpt>
      <trkpt lat="44.27004" lon="0.52533">
        <ele>159.72</ele>
        <time>2013-09-22T06:15:59Z</time>
      </trkpt>
      <trkpt lat="44.2696" lon="0.52428">
        <ele>158.75</ele>
        <time>2013-09-22T06:16:17Z</time>
      </trkpt>
      <trkpt lat="44.26933" lon="0.52374">
        <ele>158.75</ele>
        <time>2013-09-22T06:16:27Z</time>
      </trkpt>
      <trkpt lat="44.26926" lon="0.5236">
        <ele>158.75</ele>
        <time>2013-09-22T06:16:30Z</time>
      </trkpt>
      <trkpt lat="44.26863" lon="0.52286">
        <ele>159.24</ele>
        <time>2013-09-22T06:16:48Z</time>
      </trkpt>
      <trkpt lat="44.26828" lon="0.5224">
        <ele>159.72</ele>
        <time>2013-09-22T06:16:59Z</time>
      </trkpt>
      <trkpt lat="44.26793" lon="0.52174">
        <ele>159.72</ele>
        <time>2013-09-22T06:17:13Z</time>
      </trkpt>
      <trkpt lat="44.26745" lon="0.52081">
        <ele>160.68</ele>
        <time>2013-09-22T06:17:33Z</time>
      </trkpt>
      <trkpt lat="44.26705" lon="0.52016">
        <ele>161.64</ele>
        <time>2013-09-22T06:17:48Z</time>
      </trkpt>
      <trkpt lat="44.26675" lon="0.51961">
        <ele>161.64</ele>
        <time>2013-09-22T06:18:01Z</time>
      </trkpt>
      <trkpt lat="44.26659" lon="0.51965">
        <ele>161.64</ele>
        <time>2013-09-22T06:18:06Z</time>
      </trkpt>
      <trkpt lat="44.26642" lon="0.51969">
        <ele>160.2</ele>
        <time>2013-09-22T06:18:10Z</time>
      </trkpt>
      <trkpt lat="44.26576" lon="0.51985">
        <ele>160.2</ele>
        <time>2013-09-22T06:18:25Z</time>
      </trkpt>
      <trkpt lat="44.26538" lon="0.51996">
        <ele>160.68</ele>
        <time>2013-09-22T06:18:36Z</time>
      </trkpt>
      <trkpt lat="44.2651" lon="0.51985">
        <ele>162.12</ele>
        <time>2013-09-22T06:18:47Z</time>
      </trkpt>
      <trkpt lat="44.26474" lon="0.51978">
        <ele>161.64</ele>
        <time>2013-09-22T06:18:59Z</time>
      </trkpt>
      <trkpt lat="44.26417" lon="0.51976">
        <ele>160.68</ele>
        <time>2013-09-22T06:19:15Z</time>
      </trkpt>
      <trkpt lat="44.26381" lon="0.51974">
        <ele>161.64</ele>
        <time>2013-09-22T06:19:25Z</time>
      </trkpt>
      <trkpt lat="44.26342" lon="0.51987">
        <ele>161.64</ele>
        <time>2013-09-22T06:19:37Z</time>
      </trkpt>
      <trkpt lat="44.26303" lon="0.52009">
        <ele>162.12</ele>
        <time>2013-09-22T06:19:49Z</time>
      </trkpt>
      <trkpt lat="44.26268" lon="0.52028">
        <ele>163.08</ele>
        <time>2013-09-22T06:20:01Z</time>
      </trkpt>
      <trkpt lat="44.26237" lon="0.52036">
        <ele>165.48</ele>
        <time>2013-09-22T06:20:13Z</time>
      </trkpt>
      <trkpt lat="44.26199" lon="0.5204">
        <ele>167.41</ele>
        <time>2013-09-22T06:20:27Z</time>
      </trkpt>
      <trkpt lat="44.2619" lon="0.5204">
        <ele>167.89</ele>
        <time>2013-09-22T06:20:31Z</time>
      </trkpt>
      <trkpt lat="44.26185" lon="0.52056">
        <ele>166.93</ele>
        <time>2013-09-22T06:20:35Z</time>
      </trkpt>
      <trkpt lat="44.26178" lon="0.52097">
        <ele>164.04</ele>
        <time>2013-09-22T06:20:41Z</time>
      </trkpt>
      <trkpt lat="44.26164" lon="0.52117">
        <ele>161.64</ele>
        <time>2013-09-22T06:20:45Z</time>
      </trkpt>
      <trkpt lat="44.26133" lon="0.52149">
        <ele>156.35</ele>
        <time>2013-09-22T06:20:51Z</time>
      </trkpt>
      <trkpt lat="44.26129" lon="0.52155">
        <ele>155.87</ele>
        <time>2013-09-22T06:20:52Z</time>
      </trkpt>
      <trkpt lat="44.26112" lon="0.52204">
        <ele>151.54</ele>
        <time>2013-09-22T06:20:57Z</time>
      </trkpt>
      <trkpt lat="44.26104" lon="0.52247">
        <ele>148.18</ele>
        <time>2013-09-22T06:21:01Z</time>
      </trkpt>
      <trkpt lat="44.26097" lon="0.52278">
        <ele>145.3</ele>
        <time>2013-09-22T06:21:04Z</time>
      </trkpt>
      <trkpt lat="44.26092" lon="0.523">
        <ele>141.93</ele>
        <time>2013-09-22T06:21:06Z</time>
      </trkpt>
      <trkpt lat="44.26084" lon="0.52343">
        <ele>138.57</ele>
        <time>2013-09-22T06:21:10Z</time>
      </trkpt>
      <trkpt lat="44.26077" lon="0.52386">
        <ele>135.2</ele>
        <time>2013-09-22T06:21:14Z</time>
      </trkpt>
      <trkpt lat="44.26081" lon="0.52428">
        <ele>133.28</ele>
        <time>2013-09-22T06:21:20Z</time>
      </trkpt>
      <trkpt lat="44.26072" lon="0.52452">
        <ele>129.92</ele>
        <time>2013-09-22T06:21:25Z</time>
      </trkpt>
      <trkpt lat="44.26061" lon="0.52459">
        <ele>128.95</ele>
        <time>2013-09-22T06:21:28Z</time>
      </trkpt>
      <trkpt lat="44.26045" lon="0.52486">
        <ele>124.63</ele>
        <time>2013-09-22T06:21:33Z</time>
      </trkpt>
      <trkpt lat="44.2604" lon="0.52519">
        <ele>122.71</ele>
        <time>2013-09-22T06:21:39Z</time>
      </trkpt>
      <trkpt lat="44.26044" lon="0.52531">
        <ele>121.26</ele>
        <time>2013-09-22T06:21:43Z</time>
      </trkpt>
      <trkpt lat="44.26036" lon="0.52552">
        <ele>116.46</ele>
        <time>2013-09-22T06:21:49Z</time>
      </trkpt>
      <trkpt lat="44.26032" lon="0.52556">
        <ele>115.5</ele>
        <time>2013-09-22T06:21:50Z</time>
      </trkpt>
      <trkpt lat="44.26009" lon="0.52555">
        <ele>112.61</ele>
        <time>2013-09-22T06:21:56Z</time>
      </trkpt>
      <trkpt lat="44.25998" lon="0.52523">
        <ele>111.17</ele>
        <time>2013-09-22T06:22:03Z</time>
      </trkpt>
      <trkpt lat="44.25993" lon="0.52486">
        <ele>109.25</ele>
        <time>2013-09-22T06:22:09Z</time>
      </trkpt>
      <trkpt lat="44.25987" lon="0.52465">
        <ele>107.81</ele>
        <time>2013-09-22T06:22:12Z</time>
      </trkpt>
      <trkpt lat="44.25978" lon="0.52431">
        <ele>107.32</ele>
        <time>2013-09-22T06:22:18Z</time>
      </trkpt>
      <trkpt lat="44.25962" lon="0.52416">
        <ele>105.4</ele>
        <time>2013-09-22T06:22:25Z</time>
      </trkpt>
      <trkpt lat="44.25926" lon="0.52405">
        <ele>103.48</ele>
        <time>2013-09-22T06:22:36Z</time>
      </trkpt>
      <trkpt lat="44.25896" lon="0.52395">
        <ele>103.96</ele>
        <time>2013-09-22T06:22:47Z</time>
      </trkpt>
      <trkpt lat="44.25867" lon="0.52371">
        <ele>101.56</ele>
        <time>2013-09-22T06:22:57Z</time>
      </trkpt>
      <trkpt lat="44.25851" lon="0.52345">
        <ele>99.63</ele>
        <time>2013-09-22T06:23:04Z</time>
      </trkpt>
      <trkpt lat="44.25841" lon="0.52332">
        <ele>97.71</ele>
        <time>2013-09-22T06:23:07Z</time>
      </trkpt>
      <trkpt lat="44.25826" lon="0.52318">
        <ele>96.27</ele>
        <time>2013-09-22T06:23:11Z</time>
      </trkpt>
      <trkpt lat="44.25794" lon="0.52312">
        <ele>91.94</ele>
        <time>2013-09-22T06:23:18Z</time>
      </trkpt>
      <trkpt lat="44.25782" lon="0.52313">
        <ele>90.98</ele>
        <time>2013-09-22T06:23:21Z</time>
      </trkpt>
      <trkpt lat="44.25775" lon="0.52312">
        <ele>89.54</ele>
        <time>2013-09-22T06:23:23Z</time>
      </trkpt>
      <trkpt lat="44.25766" lon="0.52309">
        <ele>89.06</ele>
        <time>2013-09-22T06:23:25Z</time>
      </trkpt>
      <trkpt lat="44.25763" lon="0.52307">
        <ele>88.1</ele>
        <time>2013-09-22T06:23:26Z</time>
      </trkpt>
      <trkpt lat="44.25744" lon="0.52272">
        <ele>84.25</ele>
        <time>2013-09-22T06:23:34Z</time>
      </trkpt>
      <trkpt lat="44.25735" lon="0.5225">
        <ele>81.85</ele>
        <time>2013-09-22T06:23:38Z</time>
      </trkpt>
      <trkpt lat="44.25719" lon="0.52217">
        <ele>80.41</ele>
        <time>2013-09-22T06:23:48Z</time>
      </trkpt>
      <trkpt lat="44.25709" lon="0.52195">
        <ele>79.45</ele>
        <time>2013-09-22T06:24:00Z</time>
      </trkpt>
      <trkpt lat="44.25685" lon="0.52151">
        <ele>76.08</ele>
        <time>2013-09-22T06:24:12Z</time>
      </trkpt>
      <trkpt lat="44.25677" lon="0.52125">
        <ele>73.68</ele>
        <time>2013-09-22T06:24:19Z</time>
      </trkpt>
      <trkpt lat="44.25663" lon="0.52132">
        <ele>72.24</ele>
        <time>2013-09-22T06:24:25Z</time>
      </trkpt>
      <trkpt lat="44.25646" lon="0.52142">
        <ele>69.83</ele>
        <time>2013-09-22T06:24:29Z</time>
      </trkpt>
      <trkpt lat="44.25625" lon="0.52158">
        <ele>67.91</ele>
        <time>2013-09-22T06:24:34Z</time>
      </trkpt>
      <trkpt lat="44.25609" lon="0.52169">
        <ele>65.99</ele>
        <time>2013-09-22T06:24:37Z</time>
      </trkpt>
      <trkpt lat="44.25597" lon="0.52178">
        <ele>65.03</ele>
        <time>2013-09-22T06:24:39Z</time>
      </trkpt>
      <trkpt lat="44.25586" lon="0.52188">
        <ele>64.55</ele>
        <time>2013-09-22T06:24:41Z</time>
      </trkpt>
      <trkpt lat="44.25566" lon="0.52212">
        <ele>64.07</ele>
        <time>2013-09-22T06:24:48Z</time>
      </trkpt>
      <trkpt lat="44.25546" lon="0.52186">
        <ele>64.55</ele>
        <time>2013-09-22T06:24:58Z</time>
      </trkpt>
      <trkpt lat="44.25518" lon="0.52132">
        <ele>67.43</ele>
        <time>2013-09-22T06:25:14Z</time>
      </trkpt>
      <trkpt lat="44.25507" lon="0.52062">
        <ele>70.31</ele>
        <time>2013-09-22T06:25:30Z</time>
      </trkpt>
      <trkpt lat="44.25475" lon="0.52005">
        <ele>70.31</ele>
        <time>2013-09-22T06:25:44Z</time>
      </trkpt>
      <trkpt lat="44.25409" lon="0.5193">
        <ele>68.87</ele>
        <time>2013-09-22T06:26:02Z</time>
      </trkpt>
      <trkpt lat="44.2537" lon="0.51855">
        <ele>68.39</ele>
        <time>2013-09-22T06:26:15Z</time>
      </trkpt>
      <trkpt lat="44.25366" lon="0.51784">
        <ele>67.43</ele>
        <time>2013-09-22T06:26:25Z</time>
      </trkpt>
      <trkpt lat="44.25366" lon="0.51764">
        <ele>67.43</ele>
        <time>2013-09-22T06:26:28Z</time>
      </trkpt>
      <trkpt lat="44.25372" lon="0.51755">
        <ele>67.91</ele>
        <time>2013-09-22T06:26:35Z</time>
      </trkpt>
      <trkpt lat="44.25382" lon="0.51756">
        <ele>70.31</ele>
        <time>2013-09-22T06:26:42Z</time>
      </trkpt>
      <trkpt lat="44.25396" lon="0.51759">
        <ele>73.68</ele>
        <time>2013-09-22T06:26:53Z</time>
      </trkpt>
      <trkpt lat="44.25411" lon="0.5176">
        <ele>76.56</ele>
        <time>2013-09-22T06:27:05Z</time>
      </trkpt>
      <trkpt lat="44.25435" lon="0.51759">
        <ele>79.93</ele>
        <time>2013-09-22T06:27:21Z</time>
      </trkpt>
      <trkpt lat="44.25458" lon="0.51759">
        <ele>82.33</ele>
        <time>2013-09-22T06:27:38Z</time>
      </trkpt>
      <trkpt lat="44.25472" lon="0.5176">
        <ele>84.73</ele>
        <time>2013-09-22T06:27:51Z</time>
      </trkpt>
      <trkpt lat="44.25473" lon="0.5176">
        <ele>84.73</ele>
        <time>2013-09-22T06:27:52Z</time>
      </trkpt>
      <trkpt lat="44.25489" lon="0.51761">
        <ele>88.1</ele>
        <time>2013-09-22T06:28:05Z</time>
      </trkpt>
      <trkpt lat="44.25502" lon="0.51762">
        <ele>90.98</ele>
        <time>2013-09-22T06:28:19Z</time>
      </trkpt>
      <trkpt lat="44.25514" lon="0.51763">
        <ele>93.87</ele>
        <time>2013-09-22T06:28:32Z</time>
      </trkpt>
      <trkpt lat="44.25527" lon="0.51763">
        <ele>96.75</ele>
        <time>2013-09-22T06:28:47Z</time>
      </trkpt>
      <trkpt lat="44.25542" lon="0.51763">
        <ele>100.11</ele>
        <time>2013-09-22T06:29:00Z</time>
      </trkpt>
      <trkpt lat="44.25553" lon="0.51763">
        <ele>103</ele>
        <time>2013-09-22T06:29:11Z</time>
      </trkpt>
      <trkpt lat="44.25564" lon="0.51766">
        <ele>106.36</ele>
        <time>2013-09-22T06:29:24Z</time>
      </trkpt>
      <trkpt lat="44.25574" lon="0.51767">
        <ele>109.73</ele>
        <time>2013-09-22T06:29:37Z</time>
      </trkpt>
      <trkpt lat="44.25579" lon="0.51769">
        <ele>111.17</ele>
        <time>2013-09-22T06:29:52Z</time>
      </trkpt>
      <trkpt lat="44.25579" lon="0.51769">
        <ele>110.69</ele>
        <time>2013-09-22T06:30:07Z</time>
      </trkpt>
      <trkpt lat="44.2558" lon="0.51769">
        <ele>111.17</ele>
        <time>2013-09-22T06:30:34Z</time>
      </trkpt>
      <trkpt lat="44.25579" lon="0.51769">
        <ele>111.17</ele>
        <time>2013-09-22T06:31:09Z</time>
      </trkpt>
      <trkpt lat="44.25579" lon="0.5177">
        <ele>110.69</ele>
        <time>2013-09-22T06:31:38Z</time>
      </trkpt>
      <trkpt lat="44.25582" lon="0.5177">
        <ele>111.65</ele>
        <time>2013-09-22T06:31:42Z</time>
      </trkpt>
      <trkpt lat="44.25595" lon="0.51774">
        <ele>114.05</ele>
        <time>2013-09-22T06:31:55Z</time>
      </trkpt>
      <trkpt lat="44.25605" lon="0.51777">
        <ele>115.98</ele>
        <time>2013-09-22T06:32:04Z</time>
      </trkpt>
      <trkpt lat="44.25619" lon="0.51781">
        <ele>118.86</ele>
        <time>2013-09-22T06:32:17Z</time>
      </trkpt>
      <trkpt lat="44.25633" lon="0.51784">
        <ele>121.74</ele>
        <time>2013-09-22T06:32:32Z</time>
      </trkpt>
      <trkpt lat="44.25646" lon="0.51783">
        <ele>124.63</ele>
        <time>2013-09-22T06:32:44Z</time>
      </trkpt>
      <trkpt lat="44.25658" lon="0.5178">
        <ele>127.99</ele>
        <time>2013-09-22T06:32:56Z</time>
      </trkpt>
      <trkpt lat="44.25675" lon="0.51776">
        <ele>130.4</ele>
        <time>2013-09-22T06:33:10Z</time>
      </trkpt>
      <trkpt lat="44.2569" lon="0.51769">
        <ele>132.32</ele>
        <time>2013-09-22T06:33:23Z</time>
      </trkpt>
      <trkpt lat="44.25708" lon="0.51761">
        <ele>132.8</ele>
        <time>2013-09-22T06:33:36Z</time>
      </trkpt>
      <trkpt lat="44.25728" lon="0.51751">
        <ele>133.76</ele>
        <time>2013-09-22T06:33:49Z</time>
      </trkpt>
      <trkpt lat="44.25733" lon="0.51747">
        <ele>134.72</ele>
        <time>2013-09-22T06:33:54Z</time>
      </trkpt>
      <trkpt lat="44.25736" lon="0.51745">
        <ele>134.72</ele>
        <time>2013-09-22T06:33:56Z</time>
      </trkpt>
      <trkpt lat="44.25746" lon="0.51738">
        <ele>135.68</ele>
        <time>2013-09-22T06:34:02Z</time>
      </trkpt>
      <trkpt lat="44.25764" lon="0.51719">
        <ele>138.09</ele>
        <time>2013-09-22T06:34:14Z</time>
      </trkpt>
      <trkpt lat="44.2578" lon="0.51698">
        <ele>140.97</ele>
        <time>2013-09-22T06:34:29Z</time>
      </trkpt>
      <trkpt lat="44.25793" lon="0.51683">
        <ele>142.89</ele>
        <time>2013-09-22T06:34:43Z</time>
      </trkpt>
      <trkpt lat="44.2581" lon="0.51664">
        <ele>145.78</ele>
        <time>2013-09-22T06:34:59Z</time>
      </trkpt>
      <trkpt lat="44.25828" lon="0.51646">
        <ele>148.66</ele>
        <time>2013-09-22T06:35:16Z</time>
      </trkpt>
      <trkpt lat="44.25848" lon="0.51628">
        <ele>150.58</ele>
        <time>2013-09-22T06:35:34Z</time>
      </trkpt>
      <trkpt lat="44.25867" lon="0.51605">
        <ele>152.03</ele>
        <time>2013-09-22T06:35:51Z</time>
      </trkpt>
      <trkpt lat="44.25872" lon="0.5159">
        <ele>152.99</ele>
        <time>2013-09-22T06:36:00Z</time>
      </trkpt>
      <trkpt lat="44.25859" lon="0.51593">
        <ele>152.99</ele>
        <time>2013-09-22T06:36:08Z</time>
      </trkpt>
      <trkpt lat="44.25836" lon="0.51592">
        <ele>152.03</ele>
        <time>2013-09-22T06:36:21Z</time>
      </trkpt>
      <trkpt lat="44.25839" lon="0.5159">
        <ele>152.99</ele>
        <time>2013-09-22T06:36:37Z</time>
      </trkpt>
      <trkpt lat="44.25839" lon="0.5159">
        <ele>152.51</ele>
        <time>2013-09-22T06:36:45Z</time>
      </trkpt>
      <trkpt lat="44.25866" lon="0.51588">
        <ele>153.47</ele>
        <time>2013-09-22T06:36:58Z</time>
      </trkpt>
      <trkpt lat="44.25872" lon="0.51575">
        <ele>153.95</ele>
        <time>2013-09-22T06:37:07Z</time>
      </trkpt>
      <trkpt lat="44.25869" lon="0.51571">
        <ele>154.43</ele>
        <time>2013-09-22T06:37:16Z</time>
      </trkpt>
      <trkpt lat="44.25846" lon="0.51555">
        <ele>152.99</ele>
        <time>2013-09-22T06:37:29Z</time>
      </trkpt>
      <trkpt lat="44.25831" lon="0.51535">
        <ele>150.1</ele>
        <time>2013-09-22T06:37:37Z</time>
      </trkpt>
      <trkpt lat="44.25815" lon="0.51519">
        <ele>146.26</ele>
        <time>2013-09-22T06:37:45Z</time>
      </trkpt>
      <trkpt lat="44.25793" lon="0.51497">
        <ele>142.89</ele>
        <time>2013-09-22T06:37:53Z</time>
      </trkpt>
      <trkpt lat="44.25781" lon="0.5148">
        <ele>141.45</ele>
        <time>2013-09-22T06:37:57Z</time>
      </trkpt>
      <trkpt lat="44.25778" lon="0.51469">
        <ele>140.01</ele>
        <time>2013-09-22T06:38:00Z</time>
      </trkpt>
      <trkpt lat="44.25778" lon="0.51427">
        <ele>137.13</ele>
        <time>2013-09-22T06:38:08Z</time>
      </trkpt>
      <trkpt lat="44.25777" lon="0.51404">
        <ele>135.2</ele>
        <time>2013-09-22T06:38:12Z</time>
      </trkpt>
      <trkpt lat="44.25779" lon="0.51367">
        <ele>133.76</ele>
        <time>2013-09-22T06:38:21Z</time>
      </trkpt>
      <trkpt lat="44.25788" lon="0.5134">
        <ele>133.28</ele>
        <time>2013-09-22T06:38:27Z</time>
      </trkpt>
      <trkpt lat="44.25785" lon="0.51294">
        <ele>134.72</ele>
        <time>2013-09-22T06:38:38Z</time>
      </trkpt>
      <trkpt lat="44.25764" lon="0.5125">
        <ele>134.24</ele>
        <time>2013-09-22T06:38:50Z</time>
      </trkpt>
      <trkpt lat="44.25739" lon="0.51214">
        <ele>132.8</ele>
        <time>2013-09-22T06:38:58Z</time>
      </trkpt>
      <trkpt lat="44.25722" lon="0.51162">
        <ele>134.24</ele>
        <time>2013-09-22T06:39:09Z</time>
      </trkpt>
      <trkpt lat="44.2571" lon="0.51104">
        <ele>135.2</ele>
        <time>2013-09-22T06:39:21Z</time>
      </trkpt>
      <trkpt lat="44.25705" lon="0.51065">
        <ele>137.13</ele>
        <time>2013-09-22T06:39:31Z</time>
      </trkpt>
      <trkpt lat="44.25705" lon="0.5104">
        <ele>138.09</ele>
        <time>2013-09-22T06:39:39Z</time>
      </trkpt>
      <trkpt lat="44.25712" lon="0.51036">
        <ele>138.57</ele>
        <time>2013-09-22T06:39:43Z</time>
      </trkpt>
      <trkpt lat="44.25715" lon="0.51037">
        <ele>139.05</ele>
        <time>2013-09-22T06:39:45Z</time>
      </trkpt>
      <trkpt lat="44.25727" lon="0.51041">
        <ele>140.97</ele>
        <time>2013-09-22T06:39:53Z</time>
      </trkpt>
      <trkpt lat="44.25753" lon="0.51054">
        <ele>144.82</ele>
        <time>2013-09-22T06:40:10Z</time>
      </trkpt>
      <trkpt lat="44.25776" lon="0.51068">
        <ele>147.22</ele>
        <time>2013-09-22T06:40:26Z</time>
      </trkpt>
      <trkpt lat="44.25796" lon="0.51081">
        <ele>150.58</ele>
        <time>2013-09-22T06:40:40Z</time>
      </trkpt>
      <trkpt lat="44.25816" lon="0.51095">
        <ele>153.47</ele>
        <time>2013-09-22T06:40:55Z</time>
      </trkpt>
      <trkpt lat="44.25839" lon="0.51107">
        <ele>156.83</ele>
        <time>2013-09-22T06:41:11Z</time>
      </trkpt>
      <trkpt lat="44.2587" lon="0.51121">
        <ele>158.75</ele>
        <time>2013-09-22T06:41:29Z</time>
      </trkpt>
      <trkpt lat="44.25918" lon="0.5114">
        <ele>159.72</ele>
        <time>2013-09-22T06:41:45Z</time>
      </trkpt>
      <trkpt lat="44.25975" lon="0.51163">
        <ele>162.12</ele>
        <time>2013-09-22T06:42:06Z</time>
      </trkpt>
      <trkpt lat="44.26007" lon="0.51174">
        <ele>165.48</ele>
        <time>2013-09-22T06:42:19Z</time>
      </trkpt>
      <trkpt lat="44.26055" lon="0.51179">
        <ele>166.93</ele>
        <time>2013-09-22T06:42:37Z</time>
      </trkpt>
      <trkpt lat="44.26097" lon="0.51153">
        <ele>164.04</ele>
        <time>2013-09-22T06:42:46Z</time>
      </trkpt>
      <trkpt lat="44.26108" lon="0.51145">
        <ele>163.56</ele>
        <time>2013-09-22T06:42:48Z</time>
      </trkpt>
      <trkpt lat="44.26118" lon="0.51138">
        <ele>163.08</ele>
        <time>2013-09-22T06:42:51Z</time>
      </trkpt>
      <trkpt lat="44.26131" lon="0.51146">
        <ele>163.56</ele>
        <time>2013-09-22T06:42:56Z</time>
      </trkpt>
      <trkpt lat="44.26188" lon="0.51206">
        <ele>164.52</ele>
        <time>2013-09-22T06:43:18Z</time>
      </trkpt>
      <trkpt lat="44.26196" lon="0.51213">
        <ele>165</ele>
        <time>2013-09-22T06:43:21Z</time>
      </trkpt>
      <trkpt lat="44.26207" lon="0.51194">
        <ele>163.08</ele>
        <time>2013-09-22T06:43:30Z</time>
      </trkpt>
      <trkpt lat="44.26226" lon="0.51166">
        <ele>159.72</ele>
        <time>2013-09-22T06:43:36Z</time>
      </trkpt>
      <trkpt lat="44.26229" lon="0.51162">
        <ele>159.72</ele>
        <time>2013-09-22T06:43:37Z</time>
      </trkpt>
      <trkpt lat="44.26241" lon="0.51143">
        <ele>157.79</ele>
        <time>2013-09-22T06:43:41Z</time>
      </trkpt>
      <trkpt lat="44.26261" lon="0.51113">
        <ele>154.43</ele>
        <time>2013-09-22T06:43:47Z</time>
      </trkpt>
      <trkpt lat="44.26271" lon="0.51099">
        <ele>153.47</ele>
        <time>2013-09-22T06:43:50Z</time>
      </trkpt>
      <trkpt lat="44.26292" lon="0.51066">
        <ele>150.1</ele>
        <time>2013-09-22T06:43:56Z</time>
      </trkpt>
      <trkpt lat="44.2631" lon="0.51042">
        <ele>147.22</ele>
        <time>2013-09-22T06:44:03Z</time>
      </trkpt>
      <trkpt lat="44.26344" lon="0.51037">
        <ele>146.26</ele>
        <time>2013-09-22T06:44:14Z</time>
      </trkpt>
      <trkpt lat="44.26382" lon="0.51029">
        <ele>142.89</ele>
        <time>2013-09-22T06:44:23Z</time>
      </trkpt>
      <trkpt lat="44.26412" lon="0.51024">
        <ele>140.01</ele>
        <time>2013-09-22T06:44:32Z</time>
      </trkpt>
      <trkpt lat="44.26415" lon="0.51024">
        <ele>140.01</ele>
        <time>2013-09-22T06:44:33Z</time>
      </trkpt>
      <trkpt lat="44.2642" lon="0.51029">
        <ele>140.01</ele>
        <time>2013-09-22T06:44:44Z</time>
      </trkpt>
      <trkpt lat="44.26418" lon="0.51041">
        <ele>141.93</ele>
        <time>2013-09-22T06:44:57Z</time>
      </trkpt>
      <trkpt lat="44.26418" lon="0.51041">
        <ele>141.45</ele>
        <time>2013-09-22T06:45:18Z</time>
      </trkpt>
      <trkpt lat="44.26417" lon="0.51054">
        <ele>143.37</ele>
        <time>2013-09-22T06:45:25Z</time>
      </trkpt>
      <trkpt lat="44.2641" lon="0.51078">
        <ele>146.74</ele>
        <time>2013-09-22T06:45:37Z</time>
      </trkpt>
      <trkpt lat="44.26404" lon="0.51109">
        <ele>149.62</ele>
        <time>2013-09-22T06:45:54Z</time>
      </trkpt>
      <trkpt lat="44.26418" lon="0.51134">
        <ele>150.1</ele>
        <time>2013-09-22T06:46:07Z</time>
      </trkpt>
      <trkpt lat="44.26432" lon="0.51156">
        <ele>150.58</ele>
        <time>2013-09-22T06:46:19Z</time>
      </trkpt>
      <trkpt lat="44.26456" lon="0.5119">
        <ele>150.1</ele>
        <time>2013-09-22T06:46:33Z</time>
      </trkpt>
      <trkpt lat="44.2647" lon="0.51178">
        <ele>148.18</ele>
        <time>2013-09-22T06:46:40Z</time>
      </trkpt>
      <trkpt lat="44.26485" lon="0.51151">
        <ele>144.82</ele>
        <time>2013-09-22T06:46:48Z</time>
      </trkpt>
      <trkpt lat="44.26497" lon="0.51127">
        <ele>141.45</ele>
        <time>2013-09-22T06:46:56Z</time>
      </trkpt>
      <trkpt lat="44.26511" lon="0.51101">
        <ele>138.57</ele>
        <time>2013-09-22T06:47:05Z</time>
      </trkpt>
      <trkpt lat="44.26523" lon="0.51081">
        <ele>136.16</ele>
        <time>2013-09-22T06:47:14Z</time>
      </trkpt>
      <trkpt lat="44.26528" lon="0.51081">
        <ele>135.68</ele>
        <time>2013-09-22T06:47:28Z</time>
      </trkpt>
      <trkpt lat="44.26528" lon="0.5108">
        <ele>135.68</ele>
        <time>2013-09-22T06:48:00Z</time>
      </trkpt>
      <trkpt lat="44.26528" lon="0.5108">
        <ele>135.2</ele>
        <time>2013-09-22T06:48:44Z</time>
      </trkpt>
      <trkpt lat="44.26528" lon="0.5108">
        <ele>135.2</ele>
        <time>2013-09-22T06:49:07Z</time>
      </trkpt>
      <trkpt lat="44.26533" lon="0.51087">
        <ele>135.2</ele>
        <time>2013-09-22T06:49:12Z</time>
      </trkpt>
      <trkpt lat="44.26582" lon="0.51134">
        <ele>132.32</ele>
        <time>2013-09-22T06:49:28Z</time>
      </trkpt>
      <trkpt lat="44.26607" lon="0.51159">
        <ele>133.28</ele>
        <time>2013-09-22T06:49:37Z</time>
      </trkpt>
      <trkpt lat="44.26628" lon="0.5114">
        <ele>130.88</ele>
        <time>2013-09-22T06:49:46Z</time>
      </trkpt>
      <trkpt lat="44.26638" lon="0.5112">
        <ele>129.92</ele>
        <time>2013-09-22T06:49:50Z</time>
      </trkpt>
      <trkpt lat="44.26644" lon="0.51109">
        <ele>129.43</ele>
        <time>2013-09-22T06:49:52Z</time>
      </trkpt>
      <trkpt lat="44.26663" lon="0.51069">
        <ele>127.99</ele>
        <time>2013-09-22T06:50:02Z</time>
      </trkpt>
      <trkpt lat="44.26663" lon="0.51066">
        <ele>128.47</ele>
        <time>2013-09-22T06:50:07Z</time>
      </trkpt>
      <trkpt lat="44.26662" lon="0.5106">
        <ele>127.99</ele>
        <time>2013-09-22T06:50:21Z</time>
      </trkpt>
      <trkpt lat="44.2666" lon="0.51055">
        <ele>127.99</ele>
        <time>2013-09-22T06:50:59Z</time>
      </trkpt>
      <trkpt lat="44.26661" lon="0.51054">
        <ele>127.99</ele>
        <time>2013-09-22T06:51:35Z</time>
      </trkpt>
      <trkpt lat="44.26661" lon="0.51055">
        <ele>127.99</ele>
        <time>2013-09-22T06:52:10Z</time>
      </trkpt>
      <trkpt lat="44.26661" lon="0.51054">
        <ele>128.47</ele>
        <time>2013-09-22T06:52:22Z</time>
      </trkpt>
      <trkpt lat="44.26661" lon="0.51059">
        <ele>128.47</ele>
        <time>2013-09-22T06:52:26Z</time>
      </trkpt>
      <trkpt lat="44.26674" lon="0.51056">
        <ele>125.59</ele>
        <time>2013-09-22T06:52:31Z</time>
      </trkpt>
      <trkpt lat="44.26678" lon="0.51056">
        <ele>125.11</ele>
        <time>2013-09-22T06:52:32Z</time>
      </trkpt>
      <trkpt lat="44.26688" lon="0.51053">
        <ele>126.07</ele>
        <time>2013-09-22T06:52:35Z</time>
      </trkpt>
      <trkpt lat="44.26695" lon="0.51045">
        <ele>126.55</ele>
        <time>2013-09-22T06:52:40Z</time>
      </trkpt>
      <trkpt lat="44.26722" lon="0.51013">
        <ele>125.59</ele>
        <time>2013-09-22T06:52:52Z</time>
      </trkpt>
      <trkpt lat="44.26754" lon="0.51005">
        <ele>123.67</ele>
        <time>2013-09-22T06:53:01Z</time>
      </trkpt>
      <trkpt lat="44.26782" lon="0.51018">
        <ele>122.71</ele>
        <time>2013-09-22T06:53:10Z</time>
      </trkpt>
      <trkpt lat="44.26787" lon="0.51024">
        <ele>121.74</ele>
        <time>2013-09-22T06:53:12Z</time>
      </trkpt>
      <trkpt lat="44.2679" lon="0.5103">
        <ele>120.78</ele>
        <time>2013-09-22T06:53:14Z</time>
      </trkpt>
      <trkpt lat="44.26789" lon="0.51042">
        <ele>118.86</ele>
        <time>2013-09-22T06:53:17Z</time>
      </trkpt>
      <trkpt lat="44.26788" lon="0.5105">
        <ele>117.42</ele>
        <time>2013-09-22T06:53:19Z</time>
      </trkpt>
      <trkpt lat="44.26788" lon="0.5107">
        <ele>114.53</ele>
        <time>2013-09-22T06:53:22Z</time>
      </trkpt>
      <trkpt lat="44.26783" lon="0.51085">
        <ele>112.61</ele>
        <time>2013-09-22T06:53:24Z</time>
      </trkpt>
      <trkpt lat="44.26774" lon="0.51105">
        <ele>112.13</ele>
        <time>2013-09-22T06:53:27Z</time>
      </trkpt>
      <trkpt lat="44.26742" lon="0.51157">
        <ele>112.61</ele>
        <time>2013-09-22T06:53:39Z</time>
      </trkpt>
      <trkpt lat="44.26729" lon="0.51201">
        <ele>112.13</ele>
        <time>2013-09-22T06:53:50Z</time>
      </trkpt>
      <trkpt lat="44.26728" lon="0.51215">
        <ele>110.69</ele>
        <time>2013-09-22T06:53:55Z</time>
      </trkpt>
      <trkpt lat="44.26733" lon="0.51232">
        <ele>105.4</ele>
        <time>2013-09-22T06:53:59Z</time>
      </trkpt>
      <trkpt lat="44.26738" lon="0.51243">
        <ele>102.04</ele>
        <time>2013-09-22T06:54:01Z</time>
      </trkpt>
      <trkpt lat="44.26744" lon="0.5125">
        <ele>100.6</ele>
        <time>2013-09-22T06:54:03Z</time>
      </trkpt>
      <trkpt lat="44.26751" lon="0.51253">
        <ele>100.11</ele>
        <time>2013-09-22T06:54:05Z</time>
      </trkpt>
      <trkpt lat="44.26756" lon="0.51252">
        <ele>99.15</ele>
        <time>2013-09-22T06:54:07Z</time>
      </trkpt>
      <trkpt lat="44.26759" lon="0.51251">
        <ele>98.67</ele>
        <time>2013-09-22T06:54:08Z</time>
      </trkpt>
      <trkpt lat="44.26767" lon="0.51252">
        <ele>97.71</ele>
        <time>2013-09-22T06:54:13Z</time>
      </trkpt>
      <trkpt lat="44.2677" lon="0.51254">
        <ele>97.23</ele>
        <time>2013-09-22T06:54:15Z</time>
      </trkpt>
      <trkpt lat="44.26782" lon="0.51261">
        <ele>96.27</ele>
        <time>2013-09-22T06:54:21Z</time>
      </trkpt>
      <trkpt lat="44.26812" lon="0.51253">
        <ele>93.39</ele>
        <time>2013-09-22T06:54:29Z</time>
      </trkpt>
      <trkpt lat="44.26829" lon="0.51245">
        <ele>91.94</ele>
        <time>2013-09-22T06:54:32Z</time>
      </trkpt>
      <trkpt lat="44.26877" lon="0.51235">
        <ele>90.98</ele>
        <time>2013-09-22T06:54:44Z</time>
      </trkpt>
      <trkpt lat="44.2692" lon="0.51224">
        <ele>89.06</ele>
        <time>2013-09-22T06:54:57Z</time>
      </trkpt>
      <trkpt lat="44.26923" lon="0.51224">
        <ele>89.06</ele>
        <time>2013-09-22T06:54:58Z</time>
      </trkpt>
      <trkpt lat="44.26939" lon="0.51244">
        <ele>89.06</ele>
        <time>2013-09-22T06:55:07Z</time>
      </trkpt>
      <trkpt lat="44.26946" lon="0.51243">
        <ele>87.62</ele>
        <time>2013-09-22T06:55:11Z</time>
      </trkpt>
      <trkpt lat="44.26951" lon="0.51242">
        <ele>87.14</ele>
        <time>2013-09-22T06:55:13Z</time>
      </trkpt>
      <trkpt lat="44.26954" lon="0.51234">
        <ele>86.66</ele>
        <time>2013-09-22T06:55:17Z</time>
      </trkpt>
      <trkpt lat="44.26946" lon="0.51194">
        <ele>84.73</ele>
        <time>2013-09-22T06:55:31Z</time>
      </trkpt>
      <trkpt lat="44.26944" lon="0.51175">
        <ele>84.25</ele>
        <time>2013-09-22T06:55:39Z</time>
      </trkpt>
      <trkpt lat="44.2693" lon="0.51146">
        <ele>83.77</ele>
        <time>2013-09-22T06:55:50Z</time>
      </trkpt>
      <trkpt lat="44.26926" lon="0.51143">
        <ele>83.77</ele>
        <time>2013-09-22T06:55:57Z</time>
      </trkpt>
      <trkpt lat="44.26909" lon="0.51153">
        <ele>85.69</ele>
        <time>2013-09-22T06:56:12Z</time>
      </trkpt>
      <trkpt lat="44.26887" lon="0.51164">
        <ele>87.62</ele>
        <time>2013-09-22T06:56:30Z</time>
      </trkpt>
      <trkpt lat="44.26878" lon="0.51171">
        <ele>88.58</ele>
        <time>2013-09-22T06:56:38Z</time>
      </trkpt>
      <trkpt lat="44.26872" lon="0.51181">
        <ele>89.54</ele>
        <time>2013-09-22T06:56:46Z</time>
      </trkpt>
      <trkpt lat="44.26867" lon="0.51182">
        <ele>90.02</ele>
        <time>2013-09-22T06:56:54Z</time>
      </trkpt>
      <trkpt lat="44.26841" lon="0.51206">
        <ele>90.98</ele>
        <time>2013-09-22T06:57:09Z</time>
      </trkpt>
      <trkpt lat="44.26826" lon="0.51228">
        <ele>92.42</ele>
        <time>2013-09-22T06:57:21Z</time>
      </trkpt>
      <trkpt lat="44.26826" lon="0.51238">
        <ele>92.9</ele>
        <time>2013-09-22T06:57:25Z</time>
      </trkpt>
      <trkpt lat="44.26823" lon="0.51244">
        <ele>93.39</ele>
        <time>2013-09-22T06:57:29Z</time>
      </trkpt>
      <trkpt lat="44.26813" lon="0.51254">
        <ele>94.83</ele>
        <time>2013-09-22T06:57:38Z</time>
      </trkpt>
      <trkpt lat="44.26801" lon="0.51259">
        <ele>95.79</ele>
        <time>2013-09-22T06:57:46Z</time>
      </trkpt>
      <trkpt lat="44.26787" lon="0.51261">
        <ele>97.71</ele>
        <time>2013-09-22T06:57:56Z</time>
      </trkpt>
      <trkpt lat="44.26783" lon="0.51253">
        <ele>98.19</ele>
        <time>2013-09-22T06:58:01Z</time>
      </trkpt>
      <trkpt lat="44.26797" lon="0.51223">
        <ele>95.31</ele>
        <time>2013-09-22T06:58:11Z</time>
      </trkpt>
      <trkpt lat="44.2681" lon="0.51205">
        <ele>93.39</ele>
        <time>2013-09-22T06:58:15Z</time>
      </trkpt>
      <trkpt lat="44.26824" lon="0.51191">
        <ele>91.94</ele>
        <time>2013-09-22T06:58:18Z</time>
      </trkpt>
      <trkpt lat="44.26849" lon="0.51172">
        <ele>90.5</ele>
        <time>2013-09-22T06:58:22Z</time>
      </trkpt>
      <trkpt lat="44.26869" lon="0.51158">
        <ele>89.54</ele>
        <time>2013-09-22T06:58:25Z</time>
      </trkpt>
      <trkpt lat="44.26884" lon="0.51147">
        <ele>89.54</ele>
        <time>2013-09-22T06:58:28Z</time>
      </trkpt>
      <trkpt lat="44.26914" lon="0.51125">
        <ele>88.58</ele>
        <time>2013-09-22T06:58:36Z</time>
      </trkpt>
      <trkpt lat="44.26925" lon="0.51106">
        <ele>85.21</ele>
        <time>2013-09-22T06:58:41Z</time>
      </trkpt>
      <trkpt lat="44.26928" lon="0.51099">
        <ele>84.25</ele>
        <time>2013-09-22T06:58:42Z</time>
      </trkpt>
      <trkpt lat="44.26944" lon="0.5107">
        <ele>82.33</ele>
        <time>2013-09-22T06:58:46Z</time>
      </trkpt>
      <trkpt lat="44.26957" lon="0.51057">
        <ele>81.37</ele>
        <time>2013-09-22T06:58:48Z</time>
      </trkpt>
      <trkpt lat="44.26978" lon="0.51026">
        <ele>78</ele>
        <time>2013-09-22T06:58:52Z</time>
      </trkpt>
      <trkpt lat="44.26996" lon="0.50994">
        <ele>76.56</ele>
        <time>2013-09-22T06:58:58Z</time>
      </trkpt>
      <trkpt lat="44.27012" lon="0.50994">
        <ele>76.56</ele>
        <time>2013-09-22T06:59:03Z</time>
      </trkpt>
      <trkpt lat="44.27039" lon="0.51">
        <ele>78</ele>
        <time>2013-09-22T06:59:11Z</time>
      </trkpt>
      <trkpt lat="44.27071" lon="0.50991">
        <ele>81.85</ele>
        <time>2013-09-22T06:59:23Z</time>
      </trkpt>
      <trkpt lat="44.27079" lon="0.50985">
        <ele>83.29</ele>
        <time>2013-09-22T06:59:28Z</time>
      </trkpt>
      <trkpt lat="44.271" lon="0.50975">
        <ele>86.66</ele>
        <time>2013-09-22T06:59:42Z</time>
      </trkpt>
      <trkpt lat="44.27122" lon="0.50969">
        <ele>88.58</ele>
        <time>2013-09-22T06:59:54Z</time>
      </trkpt>
      <trkpt lat="44.27147" lon="0.50955">
        <ele>89.54</ele>
        <time>2013-09-22T07:00:05Z</time>
      </trkpt>
      <trkpt lat="44.27177" lon="0.50968">
        <ele>87.62</ele>
        <time>2013-09-22T07:00:14Z</time>
      </trkpt>
      <trkpt lat="44.27206" lon="0.50986">
        <ele>84.73</ele>
        <time>2013-09-22T07:00:19Z</time>
      </trkpt>
      <trkpt lat="44.27211" lon="0.50989">
        <ele>84.25</ele>
        <time>2013-09-22T07:00:20Z</time>
      </trkpt>
      <trkpt lat="44.27225" lon="0.50994">
        <ele>84.25</ele>
        <time>2013-09-22T07:00:23Z</time>
      </trkpt>
      <trkpt lat="44.27256" lon="0.51002">
        <ele>83.77</ele>
        <time>2013-09-22T07:00:29Z</time>
      </trkpt>
      <trkpt lat="44.27318" lon="0.51002">
        <ele>82.81</ele>
        <time>2013-09-22T07:00:39Z</time>
      </trkpt>
      <trkpt lat="44.27346" lon="0.51006">
        <ele>83.29</ele>
        <time>2013-09-22T07:00:43Z</time>
      </trkpt>
      <trkpt lat="44.27379" lon="0.51043">
        <ele>86.18</ele>
        <time>2013-09-22T07:00:54Z</time>
      </trkpt>
      <trkpt lat="44.27396" lon="0.51071">
        <ele>87.62</ele>
        <time>2013-09-22T07:01:03Z</time>
      </trkpt>
      <trkpt lat="44.27428" lon="0.51108">
        <ele>88.1</ele>
        <time>2013-09-22T07:01:14Z</time>
      </trkpt>
      <trkpt lat="44.27462" lon="0.51133">
        <ele>89.06</ele>
        <time>2013-09-22T07:01:24Z</time>
      </trkpt>
      <trkpt lat="44.27497" lon="0.51149">
        <ele>90.5</ele>
        <time>2013-09-22T07:01:34Z</time>
      </trkpt>
      <trkpt lat="44.2754" lon="0.51181">
        <ele>91.94</ele>
        <time>2013-09-22T07:01:47Z</time>
      </trkpt>
      <trkpt lat="44.27578" lon="0.51218">
        <ele>93.39</ele>
        <time>2013-09-22T07:02:00Z</time>
      </trkpt>
      <trkpt lat="44.2761" lon="0.51243">
        <ele>93.87</ele>
        <time>2013-09-22T07:02:10Z</time>
      </trkpt>
      <trkpt lat="44.27626" lon="0.51255">
        <ele>93.87</ele>
        <time>2013-09-22T07:02:14Z</time>
      </trkpt>
      <trkpt lat="44.2765" lon="0.51276">
        <ele>93.87</ele>
        <time>2013-09-22T07:02:20Z</time>
      </trkpt>
      <trkpt lat="44.27687" lon="0.51325">
        <ele>95.31</ele>
        <time>2013-09-22T07:02:34Z</time>
      </trkpt>
      <trkpt lat="44.27704" lon="0.51353">
        <ele>97.23</ele>
        <time>2013-09-22T07:02:46Z</time>
      </trkpt>
      <trkpt lat="44.2771" lon="0.5136">
        <ele>97.23</ele>
        <time>2013-09-22T07:02:58Z</time>
      </trkpt>
      <trkpt lat="44.27712" lon="0.51358">
        <ele>97.23</ele>
        <time>2013-09-22T07:03:18Z</time>
      </trkpt>
      <trkpt lat="44.27719" lon="0.51364">
        <ele>97.71</ele>
        <time>2013-09-22T07:03:31Z</time>
      </trkpt>
      <trkpt lat="44.27722" lon="0.51364">
        <ele>98.19</ele>
        <time>2013-09-22T07:03:47Z</time>
      </trkpt>
      <trkpt lat="44.2774" lon="0.51371">
        <ele>99.15</ele>
        <time>2013-09-22T07:03:58Z</time>
      </trkpt>
      <trkpt lat="44.27762" lon="0.51375">
        <ele>99.63</ele>
        <time>2013-09-22T07:04:07Z</time>
      </trkpt>
      <trkpt lat="44.27801" lon="0.51396">
        <ele>99.15</ele>
        <time>2013-09-22T07:04:19Z</time>
      </trkpt>
      <trkpt lat="44.27848" lon="0.5143">
        <ele>97.23</ele>
        <time>2013-09-22T07:04:31Z</time>
      </trkpt>
      <trkpt lat="44.27853" lon="0.51437">
        <ele>97.23</ele>
        <time>2013-09-22T07:04:33Z</time>
      </trkpt>
      <trkpt lat="44.27864" lon="0.51454">
        <ele>96.75</ele>
        <time>2013-09-22T07:04:37Z</time>
      </trkpt>
      <trkpt lat="44.27878" lon="0.51484">
        <ele>97.71</ele>
        <time>2013-09-22T07:04:46Z</time>
      </trkpt>
      <trkpt lat="44.2788" lon="0.51489">
        <ele>98.19</ele>
        <time>2013-09-22T07:04:47Z</time>
      </trkpt>
      <trkpt lat="44.27889" lon="0.51503">
        <ele>98.67</ele>
        <time>2013-09-22T07:04:57Z</time>
      </trkpt>
      <trkpt lat="44.27894" lon="0.51515">
        <ele>98.67</ele>
        <time>2013-09-22T07:05:10Z</time>
      </trkpt>
      <trkpt lat="44.279" lon="0.51525">
        <ele>97.71</ele>
        <time>2013-09-22T07:05:23Z</time>
      </trkpt>
      <trkpt lat="44.27906" lon="0.51542">
        <ele>97.23</ele>
        <time>2013-09-22T07:05:30Z</time>
      </trkpt>
      <trkpt lat="44.27924" lon="0.51583">
        <ele>93.87</ele>
        <time>2013-09-22T07:05:40Z</time>
      </trkpt>
      <trkpt lat="44.27929" lon="0.516">
        <ele>95.31</ele>
        <time>2013-09-22T07:05:44Z</time>
      </trkpt>
      <trkpt lat="44.27943" lon="0.51622">
        <ele>91.46</ele>
        <time>2013-09-22T07:05:50Z</time>
      </trkpt>
      <trkpt lat="44.2795" lon="0.51633">
        <ele>90.98</ele>
        <time>2013-09-22T07:05:52Z</time>
      </trkpt>
      <trkpt lat="44.27963" lon="0.51656">
        <ele>88.58</ele>
        <time>2013-09-22T07:05:57Z</time>
      </trkpt>
      <trkpt lat="44.27971" lon="0.51668">
        <ele>86.66</ele>
        <time>2013-09-22T07:06:00Z</time>
      </trkpt>
      <trkpt lat="44.27985" lon="0.51683">
        <ele>85.69</ele>
        <time>2013-09-22T07:06:08Z</time>
      </trkpt>
      <trkpt lat="44.27992" lon="0.51686">
        <ele>84.25</ele>
        <time>2013-09-22T07:06:21Z</time>
      </trkpt>
      <trkpt lat="44.27994" lon="0.51683">
        <ele>83.77</ele>
        <time>2013-09-22T07:06:35Z</time>
      </trkpt>
      <trkpt lat="44.27994" lon="0.51684">
        <ele>83.77</ele>
        <time>2013-09-22T07:06:38Z</time>
      </trkpt>
      <trkpt lat="44.27996" lon="0.51676">
        <ele>82.33</ele>
        <time>2013-09-22T07:06:42Z</time>
      </trkpt>
      <trkpt lat="44.28002" lon="0.51667">
        <ele>80.89</ele>
        <time>2013-09-22T07:06:46Z</time>
      </trkpt>
      <trkpt lat="44.28004" lon="0.51664">
        <ele>80.89</ele>
        <time>2013-09-22T07:06:47Z</time>
      </trkpt>
      <trkpt lat="44.28007" lon="0.51659">
        <ele>80.89</ele>
        <time>2013-09-22T07:06:49Z</time>
      </trkpt>
      <trkpt lat="44.28024" lon="0.51645">
        <ele>79.45</ele>
        <time>2013-09-22T07:06:56Z</time>
      </trkpt>
      <trkpt lat="44.28042" lon="0.51625">
        <ele>78.48</ele>
        <time>2013-09-22T07:07:03Z</time>
      </trkpt>
      <trkpt lat="44.28051" lon="0.51608">
        <ele>79.45</ele>
        <time>2013-09-22T07:07:09Z</time>
      </trkpt>
      <trkpt lat="44.28055" lon="0.51595">
        <ele>78</ele>
        <time>2013-09-22T07:07:14Z</time>
      </trkpt>
      <trkpt lat="44.28045" lon="0.51585">
        <ele>78</ele>
        <time>2013-09-22T07:07:18Z</time>
      </trkpt>
      <trkpt lat="44.28045" lon="0.51569">
        <ele>78</ele>
        <time>2013-09-22T07:07:22Z</time>
      </trkpt>
      <trkpt lat="44.28045" lon="0.51523">
        <ele>78</ele>
        <time>2013-09-22T07:07:32Z</time>
      </trkpt>
      <trkpt lat="44.28059" lon="0.51508">
        <ele>78</ele>
        <time>2013-09-22T07:07:38Z</time>
      </trkpt>
      <trkpt lat="44.28087" lon="0.51484">
        <ele>78</ele>
        <time>2013-09-22T07:07:49Z</time>
      </trkpt>
      <trkpt lat="44.28121" lon="0.51446">
        <ele>77.52</ele>
        <time>2013-09-22T07:08:02Z</time>
      </trkpt>
      <trkpt lat="44.28152" lon="0.51426">
        <ele>78.48</ele>
        <time>2013-09-22T07:08:14Z</time>
      </trkpt>
      <trkpt lat="44.28176" lon="0.51408">
        <ele>80.89</ele>
        <time>2013-09-22T07:08:28Z</time>
      </trkpt>
      <trkpt lat="44.2819" lon="0.51399">
        <ele>84.25</ele>
        <time>2013-09-22T07:08:39Z</time>
      </trkpt>
      <trkpt lat="44.28206" lon="0.51389">
        <ele>87.14</ele>
        <time>2013-09-22T07:08:54Z</time>
      </trkpt>
      <trkpt lat="44.28211" lon="0.51384">
        <ele>88.1</ele>
        <time>2013-09-22T07:09:00Z</time>
      </trkpt>
      <trkpt lat="44.28223" lon="0.51382">
        <ele>91.46</ele>
        <time>2013-09-22T07:09:13Z</time>
      </trkpt>
      <trkpt lat="44.28227" lon="0.51387">
        <ele>90.98</ele>
        <time>2013-09-22T07:09:17Z</time>
      </trkpt>
      <trkpt lat="44.28246" lon="0.51424">
        <ele>90.98</ele>
        <time>2013-09-22T07:09:31Z</time>
      </trkpt>
      <trkpt lat="44.28256" lon="0.51442">
        <ele>90.5</ele>
        <time>2013-09-22T07:09:38Z</time>
      </trkpt>
      <trkpt lat="44.28263" lon="0.51438">
        <ele>90.5</ele>
        <time>2013-09-22T07:09:43Z</time>
      </trkpt>
      <trkpt lat="44.2827" lon="0.51429">
        <ele>91.94</ele>
        <time>2013-09-22T07:09:50Z</time>
      </trkpt>
      <trkpt lat="44.28275" lon="0.5142">
        <ele>92.9</ele>
        <time>2013-09-22T07:09:55Z</time>
      </trkpt>
      <trkpt lat="44.28281" lon="0.51407">
        <ele>94.83</ele>
        <time>2013-09-22T07:10:07Z</time>
      </trkpt>
      <trkpt lat="44.2829" lon="0.51393">
        <ele>97.23</ele>
        <time>2013-09-22T07:10:24Z</time>
      </trkpt>
      <trkpt lat="44.28297" lon="0.51384">
        <ele>100.11</ele>
        <time>2013-09-22T07:10:39Z</time>
      </trkpt>
      <trkpt lat="44.28301" lon="0.51378">
        <ele>102.52</ele>
        <time>2013-09-22T07:10:53Z</time>
      </trkpt>
      <trkpt lat="44.28301" lon="0.51374">
        <ele>103.48</ele>
        <time>2013-09-22T07:11:01Z</time>
      </trkpt>
      <trkpt lat="44.28309" lon="0.51361">
        <ele>104.44</ele>
        <time>2013-09-22T07:11:14Z</time>
      </trkpt>
      <trkpt lat="44.28316" lon="0.51348">
        <ele>107.32</ele>
        <time>2013-09-22T07:11:28Z</time>
      </trkpt>
      <trkpt lat="44.2832" lon="0.5134">
        <ele>109.73</ele>
        <time>2013-09-22T07:11:41Z</time>
      </trkpt>
      <trkpt lat="44.28324" lon="0.51329">
        <ele>112.13</ele>
        <time>2013-09-22T07:11:54Z</time>
      </trkpt>
      <trkpt lat="44.28324" lon="0.5132">
        <ele>113.09</ele>
        <time>2013-09-22T07:12:07Z</time>
      </trkpt>
      <trkpt lat="44.28325" lon="0.51319">
        <ele>112.61</ele>
        <time>2013-09-22T07:12:41Z</time>
      </trkpt>
      <trkpt lat="44.28324" lon="0.51319">
        <ele>113.09</ele>
        <time>2013-09-22T07:13:13Z</time>
      </trkpt>
      <trkpt lat="44.28323" lon="0.51319">
        <ele>112.61</ele>
        <time>2013-09-22T07:13:54Z</time>
      </trkpt>
      <trkpt lat="44.28323" lon="0.5132">
        <ele>112.61</ele>
        <time>2013-09-22T07:14:33Z</time>
      </trkpt>
      <trkpt lat="44.28323" lon="0.51319">
        <ele>113.57</ele>
        <time>2013-09-22T07:14:48Z</time>
      </trkpt>
      <trkpt lat="44.28318" lon="0.51306">
        <ele>116.46</ele>
        <time>2013-09-22T07:15:02Z</time>
      </trkpt>
      <trkpt lat="44.28311" lon="0.51296">
        <ele>118.38</ele>
        <time>2013-09-22T07:15:13Z</time>
      </trkpt>
      <trkpt lat="44.28303" lon="0.51287">
        <ele>119.82</ele>
        <time>2013-09-22T07:15:26Z</time>
      </trkpt>
      <trkpt lat="44.28298" lon="0.5128">
        <ele>120.78</ele>
        <time>2013-09-22T07:15:38Z</time>
      </trkpt>
      <trkpt lat="44.28293" lon="0.51273">
        <ele>121.26</ele>
        <time>2013-09-22T07:15:54Z</time>
      </trkpt>
      <trkpt lat="44.28286" lon="0.51255">
        <ele>124.15</ele>
        <time>2013-09-22T07:16:09Z</time>
      </trkpt>
      <trkpt lat="44.28284" lon="0.51239">
        <ele>125.11</ele>
        <time>2013-09-22T07:16:20Z</time>
      </trkpt>
      <trkpt lat="44.28285" lon="0.51232">
        <ele>125.59</ele>
        <time>2013-09-22T07:16:24Z</time>
      </trkpt>
      <trkpt lat="44.28287" lon="0.51221">
        <ele>126.07</ele>
        <time>2013-09-22T07:16:39Z</time>
      </trkpt>
      <trkpt lat="44.28286" lon="0.51222">
        <ele>126.07</ele>
        <time>2013-09-22T07:17:07Z</time>
      </trkpt>
      <trkpt lat="44.28286" lon="0.51224">
        <ele>126.07</ele>
        <time>2013-09-22T07:17:41Z</time>
      </trkpt>
      <trkpt lat="44.28286" lon="0.51223">
        <ele>126.55</ele>
        <time>2013-09-22T07:18:17Z</time>
      </trkpt>
      <trkpt lat="44.28285" lon="0.51222">
        <ele>126.55</ele>
        <time>2013-09-22T07:18:53Z</time>
      </trkpt>
      <trkpt lat="44.28285" lon="0.51222">
        <ele>127.03</ele>
        <time>2013-09-22T07:19:28Z</time>
      </trkpt>
      <trkpt lat="44.28286" lon="0.51223">
        <ele>127.03</ele>
        <time>2013-09-22T07:20:07Z</time>
      </trkpt>
      <trkpt lat="44.28285" lon="0.51224">
        <ele>127.51</ele>
        <time>2013-09-22T07:20:44Z</time>
      </trkpt>
      <trkpt lat="44.28286" lon="0.51223">
        <ele>127.51</ele>
        <time>2013-09-22T07:21:17Z</time>
      </trkpt>
      <trkpt lat="44.28288" lon="0.51222">
        <ele>127.51</ele>
        <time>2013-09-22T07:21:55Z</time>
      </trkpt>
      <trkpt lat="44.28287" lon="0.51221">
        <ele>127.99</ele>
        <time>2013-09-22T07:22:35Z</time>
      </trkpt>
      <trkpt lat="44.28286" lon="0.51221">
        <ele>127.51</ele>
        <time>2013-09-22T07:23:10Z</time>
      </trkpt>
      <trkpt lat="44.28285" lon="0.51221">
        <ele>127.99</ele>
        <time>2013-09-22T07:23:42Z</time>
      </trkpt>
      <trkpt lat="44.28286" lon="0.51221">
        <ele>127.99</ele>
        <time>2013-09-22T07:24:17Z</time>
      </trkpt>
      <trkpt lat="44.28286" lon="0.51221">
        <ele>127.99</ele>
        <time>2013-09-22T07:24:53Z</time>
      </trkpt>
      <trkpt lat="44.28286" lon="0.5122">
        <ele>127.99</ele>
        <time>2013-09-22T07:25:29Z</time>
      </trkpt>
      <trkpt lat="44.28286" lon="0.5122">
        <ele>127.99</ele>
        <time>2013-09-22T07:26:05Z</time>
      </trkpt>
      <trkpt lat="44.28285" lon="0.5122">
        <ele>127.99</ele>
        <time>2013-09-22T07:26:42Z</time>
      </trkpt>
      <trkpt lat="44.28284" lon="0.51221">
        <ele>127.99</ele>
        <time>2013-09-22T07:27:22Z</time>
      </trkpt>
      <trkpt lat="44.28284" lon="0.51218">
        <ele>127.99</ele>
        <time>2013-09-22T07:28:04Z</time>
      </trkpt>
      <trkpt lat="44.28284" lon="0.51219">
        <ele>127.99</ele>
        <time>2013-09-22T07:28:42Z</time>
      </trkpt>
      <trkpt lat="44.28286" lon="0.5122">
        <ele>127.51</ele>
        <time>2013-09-22T07:29:17Z</time>
      </trkpt>
      <trkpt lat="44.28286" lon="0.5122">
        <ele>127.99</ele>
        <time>2013-09-22T07:29:58Z</time>
      </trkpt>
      <trkpt lat="44.28286" lon="0.51221">
        <ele>127.99</ele>
        <time>2013-09-22T07:30:35Z</time>
      </trkpt>
      <trkpt lat="44.28286" lon="0.5122">
        <ele>127.99</ele>
        <time>2013-09-22T07:31:14Z</time>
      </trkpt>
      <trkpt lat="44.28285" lon="0.5122">
        <ele>127.99</ele>
        <time>2013-09-22T07:31:48Z</time>
      </trkpt>
      <trkpt lat="44.28285" lon="0.5122">
        <ele>127.99</ele>
        <time>2013-09-22T07:32:28Z</time>
      </trkpt>
      <trkpt lat="44.28286" lon="0.51219">
        <ele>127.51</ele>
        <time>2013-09-22T07:33:04Z</time>
      </trkpt>
      <trkpt lat="44.28287" lon="0.51218">
        <ele>127.51</ele>
        <time>2013-09-22T07:33:37Z</time>
      </trkpt>
      <trkpt lat="44.28287" lon="0.51218">
        <ele>127.99</ele>
        <time>2013-09-22T07:34:11Z</time>
      </trkpt>
      <trkpt lat="44.28287" lon="0.51217">
        <ele>127.51</ele>
        <time>2013-09-22T07:34:45Z</time>
      </trkpt>
      <trkpt lat="44.28286" lon="0.51218">
        <ele>127.51</ele>
        <time>2013-09-22T07:35:19Z</time>
      </trkpt>
      <trkpt lat="44.28286" lon="0.51219">
        <ele>127.51</ele>
        <time>2013-09-22T07:35:59Z</time>
      </trkpt>
      <trkpt lat="44.28286" lon="0.51218">
        <ele>127.51</ele>
        <time>2013-09-22T07:36:27Z</time>
      </trkpt>
      <trkpt lat="44.28285" lon="0.51216">
        <ele>127.51</ele>
        <time>2013-09-22T07:37:08Z</time>
      </trkpt>
      <trkpt lat="44.28285" lon="0.51217">
        <ele>127.03</ele>
        <time>2013-09-22T07:37:45Z</time>
      </trkpt>
      <trkpt lat="44.28286" lon="0.51217">
        <ele>127.51</ele>
        <time>2013-09-22T07:38:06Z</time>
      </trkpt>
      <trkpt lat="44.28291" lon="0.51206">
        <ele>128.47</ele>
        <time>2013-09-22T07:38:12Z</time>
      </trkpt>
      <trkpt lat="44.28303" lon="0.5118">
        <ele>130.4</ele>
        <time>2013-09-22T07:38:25Z</time>
      </trkpt>
      <trkpt lat="44.28313" lon="0.51154">
        <ele>131.36</ele>
        <time>2013-09-22T07:38:37Z</time>
      </trkpt>
      <trkpt lat="44.28325" lon="0.51136">
        <ele>132.32</ele>
        <time>2013-09-22T07:38:47Z</time>
      </trkpt>
      <trkpt lat="44.28349" lon="0.51132">
        <ele>134.72</ele>
        <time>2013-09-22T07:38:59Z</time>
      </trkpt>
      <trkpt lat="44.28378" lon="0.51126">
        <ele>137.61</ele>
        <time>2013-09-22T07:39:16Z</time>
      </trkpt>
      <trkpt lat="44.28405" lon="0.51125">
        <ele>139.05</ele>
        <time>2013-09-22T07:39:30Z</time>
      </trkpt>
      <trkpt lat="44.28432" lon="0.51122">
        <ele>140.97</ele>
        <time>2013-09-22T07:39:46Z</time>
      </trkpt>
      <trkpt lat="44.28453" lon="0.51119">
        <ele>143.85</ele>
        <time>2013-09-22T07:40:01Z</time>
      </trkpt>
      <trkpt lat="44.28462" lon="0.51116">
        <ele>145.3</ele>
        <time>2013-09-22T07:40:08Z</time>
      </trkpt>
      <trkpt lat="44.28468" lon="0.51114">
        <ele>146.26</ele>
        <time>2013-09-22T07:40:13Z</time>
      </trkpt>
      <trkpt lat="44.28477" lon="0.51113">
        <ele>147.7</ele>
        <time>2013-09-22T07:40:20Z</time>
      </trkpt>
      <trkpt lat="44.2848" lon="0.51112">
        <ele>147.7</ele>
        <time>2013-09-22T07:40:23Z</time>
      </trkpt>
      <trkpt lat="44.28494" lon="0.51107">
        <ele>150.1</ele>
        <time>2013-09-22T07:40:34Z</time>
      </trkpt>
      <trkpt lat="44.28496" lon="0.51105">
        <ele>150.1</ele>
        <time>2013-09-22T07:40:36Z</time>
      </trkpt>
      <trkpt lat="44.28518" lon="0.51093">
        <ele>152.51</ele>
        <time>2013-09-22T07:40:51Z</time>
      </trkpt>
      <trkpt lat="44.28536" lon="0.5108">
        <ele>153.47</ele>
        <time>2013-09-22T07:41:03Z</time>
      </trkpt>
      <trkpt lat="44.2856" lon="0.51063">
        <ele>155.39</ele>
        <time>2013-09-22T07:41:19Z</time>
      </trkpt>
      <trkpt lat="44.28579" lon="0.51045">
        <ele>157.31</ele>
        <time>2013-09-22T07:41:34Z</time>
      </trkpt>
      <trkpt lat="44.28601" lon="0.51024">
        <ele>159.24</ele>
        <time>2013-09-22T07:41:48Z</time>
      </trkpt>
      <trkpt lat="44.28634" lon="0.50996">
        <ele>162.12</ele>
        <time>2013-09-22T07:42:09Z</time>
      </trkpt>
      <trkpt lat="44.28663" lon="0.50977">
        <ele>163.56</ele>
        <time>2013-09-22T07:42:27Z</time>
      </trkpt>
      <trkpt lat="44.2869" lon="0.50968">
        <ele>166.45</ele>
        <time>2013-09-22T07:42:42Z</time>
      </trkpt>
      <trkpt lat="44.28712" lon="0.50982">
        <ele>166.93</ele>
        <time>2013-09-22T07:42:52Z</time>
      </trkpt>
      <trkpt lat="44.28728" lon="0.50988">
        <ele>166.93</ele>
        <time>2013-09-22T07:42:57Z</time>
      </trkpt>
      <trkpt lat="44.28775" lon="0.51001">
        <ele>168.85</ele>
        <time>2013-09-22T07:43:12Z</time>
      </trkpt>
      <trkpt lat="44.28798" lon="0.50995">
        <ele>170.77</ele>
        <time>2013-09-22T07:43:21Z</time>
      </trkpt>
      <trkpt lat="44.28809" lon="0.51005">
        <ele>171.25</ele>
        <time>2013-09-22T07:43:26Z</time>
      </trkpt>
      <trkpt lat="44.28851" lon="0.51075">
        <ele>171.25</ele>
        <time>2013-09-22T07:43:45Z</time>
      </trkpt>
      <trkpt lat="44.28854" lon="0.5108">
        <ele>171.25</ele>
        <time>2013-09-22T07:43:47Z</time>
      </trkpt>
      <trkpt lat="44.28864" lon="0.51088">
        <ele>171.73</ele>
        <time>2013-09-22T07:43:54Z</time>
      </trkpt>
      <trkpt lat="44.28861" lon="0.51111">
        <ele>170.77</ele>
        <time>2013-09-22T07:44:02Z</time>
      </trkpt>
      <trkpt lat="44.28895" lon="0.51158">
        <ele>170.77</ele>
        <time>2013-09-22T07:44:16Z</time>
      </trkpt>
      <trkpt lat="44.28935" lon="0.51193">
        <ele>171.25</ele>
        <time>2013-09-22T07:44:29Z</time>
      </trkpt>
      <trkpt lat="44.28969" lon="0.51188">
        <ele>172.21</ele>
        <time>2013-09-22T07:44:39Z</time>
      </trkpt>
      <trkpt lat="44.28993" lon="0.51174">
        <ele>172.21</ele>
        <time>2013-09-22T07:44:46Z</time>
      </trkpt>
      <trkpt lat="44.29001" lon="0.51194">
        <ele>172.21</ele>
        <time>2013-09-22T07:44:52Z</time>
      </trkpt>
      <trkpt lat="44.29006" lon="0.51294">
        <ele>173.17</ele>
        <time>2013-09-22T07:45:11Z</time>
      </trkpt>
      <trkpt lat="44.28992" lon="0.51388">
        <ele>175.58</ele>
        <time>2013-09-22T07:45:30Z</time>
      </trkpt>
      <trkpt lat="44.28991" lon="0.51394">
        <ele>175.58</ele>
        <time>2013-09-22T07:45:31Z</time>
      </trkpt>
      <trkpt lat="44.28996" lon="0.51426">
        <ele>175.58</ele>
        <time>2013-09-22T07:45:36Z</time>
      </trkpt>
      <trkpt lat="44.29" lon="0.51438">
        <ele>174.62</ele>
        <time>2013-09-22T07:45:38Z</time>
      </trkpt>
      <trkpt lat="44.2901" lon="0.51454">
        <ele>174.62</ele>
        <time>2013-09-22T07:45:41Z</time>
      </trkpt>
      <trkpt lat="44.29055" lon="0.51497">
        <ele>174.14</ele>
        <time>2013-09-22T07:45:52Z</time>
      </trkpt>
      <trkpt lat="44.29068" lon="0.51532">
        <ele>170.77</ele>
        <time>2013-09-22T07:45:58Z</time>
      </trkpt>
      <trkpt lat="44.29068" lon="0.51547">
        <ele>169.33</ele>
        <time>2013-09-22T07:46:01Z</time>
      </trkpt>
      <trkpt lat="44.29079" lon="0.51569">
        <ele>166.93</ele>
        <time>2013-09-22T07:46:05Z</time>
      </trkpt>
      <trkpt lat="44.29086" lon="0.51582">
        <ele>163.56</ele>
        <time>2013-09-22T07:46:07Z</time>
      </trkpt>
      <trkpt lat="44.29121" lon="0.51595">
        <ele>162.6</ele>
        <time>2013-09-22T07:46:15Z</time>
      </trkpt>
      <trkpt lat="44.29151" lon="0.51594">
        <ele>162.12</ele>
        <time>2013-09-22T07:46:21Z</time>
      </trkpt>
      <trkpt lat="44.29175" lon="0.51606">
        <ele>162.6</ele>
        <time>2013-09-22T07:46:26Z</time>
      </trkpt>
      <trkpt lat="44.29196" lon="0.51632">
        <ele>162.6</ele>
        <time>2013-09-22T07:46:35Z</time>
      </trkpt>
      <trkpt lat="44.29213" lon="0.51648">
        <ele>163.56</ele>
        <time>2013-09-22T07:46:42Z</time>
      </trkpt>
      <trkpt lat="44.29218" lon="0.51659">
        <ele>162.6</ele>
        <time>2013-09-22T07:46:44Z</time>
      </trkpt>
      <trkpt lat="44.29242" lon="0.51702">
        <ele>164.52</ele>
        <time>2013-09-22T07:46:56Z</time>
      </trkpt>
      <trkpt lat="44.29244" lon="0.51706">
        <ele>164.04</ele>
        <time>2013-09-22T07:46:57Z</time>
      </trkpt>
      <trkpt lat="44.29264" lon="0.51733">
        <ele>163.08</ele>
        <time>2013-09-22T07:47:05Z</time>
      </trkpt>
      <trkpt lat="44.29293" lon="0.51772">
        <ele>163.08</ele>
        <time>2013-09-22T07:47:17Z</time>
      </trkpt>
      <trkpt lat="44.29327" lon="0.51818">
        <ele>164.04</ele>
        <time>2013-09-22T07:47:29Z</time>
      </trkpt>
      <trkpt lat="44.29363" lon="0.51878">
        <ele>166.45</ele>
        <time>2013-09-22T07:47:45Z</time>
      </trkpt>
      <trkpt lat="44.29372" lon="0.5191">
        <ele>167.41</ele>
        <time>2013-09-22T07:47:55Z</time>
      </trkpt>
      <trkpt lat="44.29377" lon="0.5194">
        <ele>170.77</ele>
        <time>2013-09-22T07:48:07Z</time>
      </trkpt>
      <trkpt lat="44.29377" lon="0.51972">
        <ele>173.17</ele>
        <time>2013-09-22T07:48:20Z</time>
      </trkpt>
      <trkpt lat="44.29379" lon="0.52009">
        <ele>174.62</ele>
        <time>2013-09-22T07:48:33Z</time>
      </trkpt>
      <trkpt lat="44.29404" lon="0.52063">
        <ele>175.1</ele>
        <time>2013-09-22T07:48:47Z</time>
      </trkpt>
      <trkpt lat="44.29431" lon="0.52121">
        <ele>175.58</ele>
        <time>2013-09-22T07:49:01Z</time>
      </trkpt>
      <trkpt lat="44.2942" lon="0.52179">
        <ele>176.06</ele>
        <time>2013-09-22T07:49:14Z</time>
      </trkpt>
      <trkpt lat="44.29412" lon="0.52244">
        <ele>176.54</ele>
        <time>2013-09-22T07:49:29Z</time>
      </trkpt>
      <trkpt lat="44.29417" lon="0.52303">
        <ele>174.62</ele>
        <time>2013-09-22T07:49:39Z</time>
      </trkpt>
      <trkpt lat="44.29416" lon="0.52369">
        <ele>172.21</ele>
        <time>2013-09-22T07:49:48Z</time>
      </trkpt>
      <trkpt lat="44.29416" lon="0.52418">
        <ele>172.21</ele>
        <time>2013-09-22T07:49:57Z</time>
      </trkpt>
      <trkpt lat="44.29402" lon="0.52437">
        <ele>171.25</ele>
        <time>2013-09-22T07:50:02Z</time>
      </trkpt>
      <trkpt lat="44.29379" lon="0.52459">
        <ele>171.25</ele>
        <time>2013-09-22T07:50:08Z</time>
      </trkpt>
      <trkpt lat="44.29372" lon="0.52468">
        <ele>171.25</ele>
        <time>2013-09-22T07:50:10Z</time>
      </trkpt>
      <trkpt lat="44.29312" lon="0.52571">
        <ele>170.77</ele>
        <time>2013-09-22T07:50:29Z</time>
      </trkpt>
      <trkpt lat="44.29274" lon="0.52623">
        <ele>171.25</ele>
        <time>2013-09-22T07:50:41Z</time>
      </trkpt>
      <trkpt lat="44.29273" lon="0.52642">
        <ele>173.17</ele>
        <time>2013-09-22T07:50:46Z</time>
      </trkpt>
      <trkpt lat="44.29291" lon="0.52695">
        <ele>176.54</ele>
        <time>2013-09-22T07:51:02Z</time>
      </trkpt>
      <trkpt lat="44.29303" lon="0.5274">
        <ele>179.42</ele>
        <time>2013-09-22T07:51:17Z</time>
      </trkpt>
      <trkpt lat="44.29319" lon="0.52791">
        <ele>179.9</ele>
        <time>2013-09-22T07:51:33Z</time>
      </trkpt>
      <trkpt lat="44.29347" lon="0.52841">
        <ele>178.94</ele>
        <time>2013-09-22T07:51:47Z</time>
      </trkpt>
      <trkpt lat="44.29359" lon="0.52863">
        <ele>176.54</ele>
        <time>2013-09-22T07:51:54Z</time>
      </trkpt>
      <trkpt lat="44.2937" lon="0.52863">
        <ele>175.1</ele>
        <time>2013-09-22T07:51:59Z</time>
      </trkpt>
      <trkpt lat="44.2939" lon="0.52856">
        <ele>172.69</ele>
        <time>2013-09-22T07:52:07Z</time>
      </trkpt>
      <trkpt lat="44.29415" lon="0.52856">
        <ele>170.29</ele>
        <time>2013-09-22T07:52:14Z</time>
      </trkpt>
      <trkpt lat="44.29424" lon="0.52858">
        <ele>170.29</ele>
        <time>2013-09-22T07:52:16Z</time>
      </trkpt>
      <trkpt lat="44.29443" lon="0.5286">
        <ele>170.29</ele>
        <time>2013-09-22T07:52:20Z</time>
      </trkpt>
      <trkpt lat="44.29485" lon="0.52839">
        <ele>171.73</ele>
        <time>2013-09-22T07:52:31Z</time>
      </trkpt>
      <trkpt lat="44.29518" lon="0.52829">
        <ele>172.69</ele>
        <time>2013-09-22T07:52:40Z</time>
      </trkpt>
      <trkpt lat="44.29565" lon="0.52848">
        <ele>172.69</ele>
        <time>2013-09-22T07:52:52Z</time>
      </trkpt>
      <trkpt lat="44.29595" lon="0.52898">
        <ele>172.21</ele>
        <time>2013-09-22T07:53:05Z</time>
      </trkpt>
      <trkpt lat="44.29624" lon="0.52934">
        <ele>174.62</ele>
        <time>2013-09-22T07:53:18Z</time>
      </trkpt>
      <trkpt lat="44.2965" lon="0.5296">
        <ele>177.98</ele>
        <time>2013-09-22T07:53:31Z</time>
      </trkpt>
      <trkpt lat="44.29676" lon="0.52984">
        <ele>180.87</ele>
        <time>2013-09-22T07:53:44Z</time>
      </trkpt>
      <trkpt lat="44.2969" lon="0.53019">
        <ele>182.31</ele>
        <time>2013-09-22T07:53:56Z</time>
      </trkpt>
      <trkpt lat="44.29708" lon="0.53075">
        <ele>183.27</ele>
        <time>2013-09-22T07:54:11Z</time>
      </trkpt>
      <trkpt lat="44.29679" lon="0.53119">
        <ele>182.79</ele>
        <time>2013-09-22T07:54:21Z</time>
      </trkpt>
      <trkpt lat="44.29632" lon="0.53145">
        <ele>180.87</ele>
        <time>2013-09-22T07:54:31Z</time>
      </trkpt>
      <trkpt lat="44.29622" lon="0.53154">
        <ele>180.38</ele>
        <time>2013-09-22T07:54:33Z</time>
      </trkpt>
      <trkpt lat="44.29602" lon="0.53207">
        <ele>178.94</ele>
        <time>2013-09-22T07:54:40Z</time>
      </trkpt>
      <trkpt lat="44.29602" lon="0.53235">
        <ele>177.5</ele>
        <time>2013-09-22T07:54:43Z</time>
      </trkpt>
      <trkpt lat="44.29591" lon="0.53282">
        <ele>175.58</ele>
        <time>2013-09-22T07:54:49Z</time>
      </trkpt>
      <trkpt lat="44.29571" lon="0.53306">
        <ele>175.1</ele>
        <time>2013-09-22T07:54:54Z</time>
      </trkpt>
      <trkpt lat="44.29538" lon="0.53331">
        <ele>176.06</ele>
        <time>2013-09-22T07:55:05Z</time>
      </trkpt>
      <trkpt lat="44.29539" lon="0.53331">
        <ele>176.06</ele>
        <time>2013-09-22T07:55:07Z</time>
      </trkpt>
      <trkpt lat="44.29545" lon="0.53325">
        <ele>175.58</ele>
        <time>2013-09-22T07:55:11Z</time>
      </trkpt>
      <trkpt lat="44.29553" lon="0.5332">
        <ele>176.06</ele>
        <time>2013-09-22T07:55:14Z</time>
      </trkpt>
      <trkpt lat="44.29552" lon="0.53307">
        <ele>177.02</ele>
        <time>2013-09-22T07:55:19Z</time>
      </trkpt>
      <trkpt lat="44.29543" lon="0.53302">
        <ele>177.02</ele>
        <time>2013-09-22T07:55:24Z</time>
      </trkpt>
      <trkpt lat="44.29519" lon="0.53286">
        <ele>176.06</ele>
        <time>2013-09-22T07:55:36Z</time>
      </trkpt>
      <trkpt lat="44.29514" lon="0.53285">
        <ele>175.58</ele>
        <time>2013-09-22T07:55:46Z</time>
      </trkpt>
      <trkpt lat="44.29479" lon="0.53335">
        <ele>173.66</ele>
        <time>2013-09-22T07:56:00Z</time>
      </trkpt>
      <trkpt lat="44.29471" lon="0.53348">
        <ele>173.17</ele>
        <time>2013-09-22T07:56:03Z</time>
      </trkpt>
      <trkpt lat="44.29467" lon="0.53359">
        <ele>173.17</ele>
        <time>2013-09-22T07:56:05Z</time>
      </trkpt>
      <trkpt lat="44.29439" lon="0.53437">
        <ele>170.77</ele>
        <time>2013-09-22T07:56:19Z</time>
      </trkpt>
      <trkpt lat="44.29436" lon="0.53443">
        <ele>170.77</ele>
        <time>2013-09-22T07:56:20Z</time>
      </trkpt>
      <trkpt lat="44.29429" lon="0.53454">
        <ele>168.85</ele>
        <time>2013-09-22T07:56:22Z</time>
      </trkpt>
      <trkpt lat="44.29417" lon="0.53469">
        <ele>165.48</ele>
        <time>2013-09-22T07:56:25Z</time>
      </trkpt>
      <trkpt lat="44.29401" lon="0.535">
        <ele>161.64</ele>
        <time>2013-09-22T07:56:30Z</time>
      </trkpt>
      <trkpt lat="44.29386" lon="0.53539">
        <ele>157.79</ele>
        <time>2013-09-22T07:56:36Z</time>
      </trkpt>
      <trkpt lat="44.29376" lon="0.53576">
        <ele>155.39</ele>
        <time>2013-09-22T07:56:42Z</time>
      </trkpt>
      <trkpt lat="44.29374" lon="0.53589">
        <ele>154.43</ele>
        <time>2013-09-22T07:56:44Z</time>
      </trkpt>
      <trkpt lat="44.29381" lon="0.5363">
        <ele>150.58</ele>
        <time>2013-09-22T07:56:52Z</time>
      </trkpt>
      <trkpt lat="44.29384" lon="0.53659">
        <ele>147.22</ele>
        <time>2013-09-22T07:56:58Z</time>
      </trkpt>
      <trkpt lat="44.29386" lon="0.53685">
        <ele>143.37</ele>
        <time>2013-09-22T07:57:06Z</time>
      </trkpt>
      <trkpt lat="44.2939" lon="0.5371">
        <ele>140.01</ele>
        <time>2013-09-22T07:57:11Z</time>
      </trkpt>
      <trkpt lat="44.29391" lon="0.53727">
        <ele>138.09</ele>
        <time>2013-09-22T07:57:14Z</time>
      </trkpt>
      <trkpt lat="44.29383" lon="0.53743">
        <ele>136.16</ele>
        <time>2013-09-22T07:57:18Z</time>
      </trkpt>
      <trkpt lat="44.29358" lon="0.53792">
        <ele>132.32</ele>
        <time>2013-09-22T07:57:28Z</time>
      </trkpt>
      <trkpt lat="44.29356" lon="0.53796">
        <ele>131.84</ele>
        <time>2013-09-22T07:57:29Z</time>
      </trkpt>
      <trkpt lat="44.2935" lon="0.53813">
        <ele>129.43</ele>
        <time>2013-09-22T07:57:32Z</time>
      </trkpt>
      <trkpt lat="44.2935" lon="0.5382">
        <ele>128.47</ele>
        <time>2013-09-22T07:57:33Z</time>
      </trkpt>
      <trkpt lat="44.2935" lon="0.53851">
        <ele>124.15</ele>
        <time>2013-09-22T07:57:40Z</time>
      </trkpt>
      <trkpt lat="44.29344" lon="0.53874">
        <ele>121.74</ele>
        <time>2013-09-22T07:57:44Z</time>
      </trkpt>
      <trkpt lat="44.2934" lon="0.53901">
        <ele>118.38</ele>
        <time>2013-09-22T07:57:48Z</time>
      </trkpt>
      <trkpt lat="44.29366" lon="0.53924">
        <ele>114.53</ele>
        <time>2013-09-22T07:57:56Z</time>
      </trkpt>
      <trkpt lat="44.29375" lon="0.53932">
        <ele>112.13</ele>
        <time>2013-09-22T07:57:58Z</time>
      </trkpt>
      <trkpt lat="44.29388" lon="0.53946">
        <ele>108.77</ele>
        <time>2013-09-22T07:58:02Z</time>
      </trkpt>
      <trkpt lat="44.29404" lon="0.53951">
        <ele>105.88</ele>
        <time>2013-09-22T07:58:08Z</time>
      </trkpt>
      <trkpt lat="44.29407" lon="0.53956">
        <ele>104.92</ele>
        <time>2013-09-22T07:58:10Z</time>
      </trkpt>
      <trkpt lat="44.29413" lon="0.53968">
        <ele>102.04</ele>
        <time>2013-09-22T07:58:15Z</time>
      </trkpt>
      <trkpt lat="44.29426" lon="0.53977">
        <ele>98.67</ele>
        <time>2013-09-22T07:58:21Z</time>
      </trkpt>
      <trkpt lat="44.29427" lon="0.5398">
        <ele>98.67</ele>
        <time>2013-09-22T07:58:22Z</time>
      </trkpt>
      <trkpt lat="44.29427" lon="0.53982">
        <ele>98.19</ele>
        <time>2013-09-22T07:58:23Z</time>
      </trkpt>
      <trkpt lat="44.29427" lon="0.53984">
        <ele>97.23</ele>
        <time>2013-09-22T07:58:24Z</time>
      </trkpt>
      <trkpt lat="44.29413" lon="0.54005">
        <ele>95.31</ele>
        <time>2013-09-22T07:58:29Z</time>
      </trkpt>
      <trkpt lat="44.29404" lon="0.54014">
        <ele>95.31</ele>
        <time>2013-09-22T07:58:31Z</time>
      </trkpt>
      <trkpt lat="44.2939" lon="0.54024">
        <ele>94.35</ele>
        <time>2013-09-22T07:58:34Z</time>
      </trkpt>
      <trkpt lat="44.2937" lon="0.54025">
        <ele>93.39</ele>
        <time>2013-09-22T07:58:38Z</time>
      </trkpt>
      <trkpt lat="44.29333" lon="0.54004">
        <ele>92.42</ele>
        <time>2013-09-22T07:58:49Z</time>
      </trkpt>
      <trkpt lat="44.29295" lon="0.53992">
        <ele>91.46</ele>
        <time>2013-09-22T07:58:59Z</time>
      </trkpt>
      <trkpt lat="44.29258" lon="0.53986">
        <ele>92.42</ele>
        <time>2013-09-22T07:59:11Z</time>
      </trkpt>
      <trkpt lat="44.29228" lon="0.53994">
        <ele>91.46</ele>
        <time>2013-09-22T07:59:21Z</time>
      </trkpt>
      <trkpt lat="44.2923" lon="0.54011">
        <ele>90.98</ele>
        <time>2013-09-22T07:59:27Z</time>
      </trkpt>
      <trkpt lat="44.29236" lon="0.54021">
        <ele>90.5</ele>
        <time>2013-09-22T07:59:30Z</time>
      </trkpt>
      <trkpt lat="44.29253" lon="0.54042">
        <ele>89.06</ele>
        <time>2013-09-22T07:59:35Z</time>
      </trkpt>
      <trkpt lat="44.29281" lon="0.54088">
        <ele>89.54</ele>
        <time>2013-09-22T07:59:49Z</time>
      </trkpt>
      <trkpt lat="44.29282" lon="0.54093">
        <ele>89.54</ele>
        <time>2013-09-22T08:00:03Z</time>
      </trkpt>
      <trkpt lat="44.29283" lon="0.54093">
        <ele>89.06</ele>
        <time>2013-09-22T08:00:29Z</time>
      </trkpt>
      <trkpt lat="44.29283" lon="0.54095">
        <ele>89.06</ele>
        <time>2013-09-22T08:01:00Z</time>
      </trkpt>
      <trkpt lat="44.29283" lon="0.54094">
        <ele>89.54</ele>
        <time>2013-09-22T08:01:28Z</time>
      </trkpt>
      <trkpt lat="44.29284" lon="0.54095">
        <ele>89.06</ele>
        <time>2013-09-22T08:01:45Z</time>
      </trkpt>
      <trkpt lat="44.29288" lon="0.54093">
        <ele>89.54</ele>
        <time>2013-09-22T08:01:49Z</time>
      </trkpt>
      <trkpt lat="44.2931" lon="0.54114">
        <ele>90.02</ele>
        <time>2013-09-22T08:01:59Z</time>
      </trkpt>
      <trkpt lat="44.29333" lon="0.54143">
        <ele>90.98</ele>
        <time>2013-09-22T08:02:11Z</time>
      </trkpt>
      <trkpt lat="44.2936" lon="0.54166">
        <ele>90.5</ele>
        <time>2013-09-22T08:02:19Z</time>
      </trkpt>
      <trkpt lat="44.29356" lon="0.54183">
        <ele>90.02</ele>
        <time>2013-09-22T08:02:23Z</time>
      </trkpt>
      <trkpt lat="44.29291" lon="0.5425">
        <ele>89.06</ele>
        <time>2013-09-22T08:02:40Z</time>
      </trkpt>
      <trkpt lat="44.29288" lon="0.54254">
        <ele>88.58</ele>
        <time>2013-09-22T08:02:41Z</time>
      </trkpt>
      <trkpt lat="44.29244" lon="0.54294">
        <ele>88.1</ele>
        <time>2013-09-22T08:02:52Z</time>
      </trkpt>
      <trkpt lat="44.2923" lon="0.54309">
        <ele>88.1</ele>
        <time>2013-09-22T08:02:56Z</time>
      </trkpt>
      <trkpt lat="44.29182" lon="0.54352">
        <ele>88.58</ele>
        <time>2013-09-22T08:03:09Z</time>
      </trkpt>
      <trkpt lat="44.29142" lon="0.54391">
        <ele>89.06</ele>
        <time>2013-09-22T08:03:20Z</time>
      </trkpt>
      <trkpt lat="44.29107" lon="0.54427">
        <ele>90.5</ele>
        <time>2013-09-22T08:03:32Z</time>
      </trkpt>
      <trkpt lat="44.29089" lon="0.54474">
        <ele>91.94</ele>
        <time>2013-09-22T08:03:45Z</time>
      </trkpt>
      <trkpt lat="44.29083" lon="0.54509">
        <ele>93.87</ele>
        <time>2013-09-22T08:03:56Z</time>
      </trkpt>
      <trkpt lat="44.29081" lon="0.54539">
        <ele>95.31</ele>
        <time>2013-09-22T08:04:08Z</time>
      </trkpt>
      <trkpt lat="44.29081" lon="0.54547">
        <ele>96.75</ele>
        <time>2013-09-22T08:04:12Z</time>
      </trkpt>
      <trkpt lat="44.29078" lon="0.54563">
        <ele>98.67</ele>
        <time>2013-09-22T08:04:20Z</time>
      </trkpt>
      <trkpt lat="44.29078" lon="0.54578">
        <ele>100.11</ele>
        <time>2013-09-22T08:04:26Z</time>
      </trkpt>
      <trkpt lat="44.29077" lon="0.54598">
        <ele>102.52</ele>
        <time>2013-09-22T08:04:36Z</time>
      </trkpt>
      <trkpt lat="44.29069" lon="0.5462">
        <ele>104.92</ele>
        <time>2013-09-22T08:04:49Z</time>
      </trkpt>
      <trkpt lat="44.29059" lon="0.54635">
        <ele>106.36</ele>
        <time>2013-09-22T08:05:00Z</time>
      </trkpt>
      <trkpt lat="44.29045" lon="0.54646">
        <ele>108.29</ele>
        <time>2013-09-22T08:05:12Z</time>
      </trkpt>
      <trkpt lat="44.29043" lon="0.54649">
        <ele>108.77</ele>
        <time>2013-09-22T08:05:16Z</time>
      </trkpt>
      <trkpt lat="44.29037" lon="0.54655">
        <ele>110.21</ele>
        <time>2013-09-22T08:05:21Z</time>
      </trkpt>
      <trkpt lat="44.29022" lon="0.54667">
        <ele>112.61</ele>
        <time>2013-09-22T08:05:33Z</time>
      </trkpt>
      <trkpt lat="44.29008" lon="0.54677">
        <ele>114.53</ele>
        <time>2013-09-22T08:05:45Z</time>
      </trkpt>
      <trkpt lat="44.29003" lon="0.54679">
        <ele>115.01</ele>
        <time>2013-09-22T08:05:50Z</time>
      </trkpt>
      <trkpt lat="44.2899" lon="0.54687">
        <ele>117.42</ele>
        <time>2013-09-22T08:06:03Z</time>
      </trkpt>
      <trkpt lat="44.28985" lon="0.54691">
        <ele>117.9</ele>
        <time>2013-09-22T08:06:07Z</time>
      </trkpt>
      <trkpt lat="44.2898" lon="0.54696">
        <ele>119.34</ele>
        <time>2013-09-22T08:06:13Z</time>
      </trkpt>
      <trkpt lat="44.28976" lon="0.547">
        <ele>120.3</ele>
        <time>2013-09-22T08:06:17Z</time>
      </trkpt>
      <trkpt lat="44.28966" lon="0.5471">
        <ele>122.71</ele>
        <time>2013-09-22T08:06:27Z</time>
      </trkpt>
      <trkpt lat="44.2896" lon="0.54716">
        <ele>124.15</ele>
        <time>2013-09-22T08:06:34Z</time>
      </trkpt>
      <trkpt lat="44.28945" lon="0.54734">
        <ele>127.03</ele>
        <time>2013-09-22T08:06:50Z</time>
      </trkpt>
      <trkpt lat="44.28937" lon="0.54742">
        <ele>129.92</ele>
        <time>2013-09-22T08:07:01Z</time>
      </trkpt>
      <trkpt lat="44.28928" lon="0.54757">
        <ele>132.8</ele>
        <time>2013-09-22T08:07:15Z</time>
      </trkpt>
      <trkpt lat="44.28921" lon="0.5477">
        <ele>135.2</ele>
        <time>2013-09-22T08:07:27Z</time>
      </trkpt>
      <trkpt lat="44.28916" lon="0.54788">
        <ele>137.61</ele>
        <time>2013-09-22T08:07:41Z</time>
      </trkpt>
      <trkpt lat="44.28915" lon="0.54793">
        <ele>138.57</ele>
        <time>2013-09-22T08:07:45Z</time>
      </trkpt>
      <trkpt lat="44.28911" lon="0.54808">
        <ele>139.05</ele>
        <time>2013-09-22T08:07:54Z</time>
      </trkpt>
      <trkpt lat="44.28902" lon="0.54828">
        <ele>140.49</ele>
        <time>2013-09-22T08:08:10Z</time>
      </trkpt>
      <trkpt lat="44.28896" lon="0.54841">
        <ele>141.45</ele>
        <time>2013-09-22T08:08:21Z</time>
      </trkpt>
      <trkpt lat="44.2888" lon="0.54856">
        <ele>142.89</ele>
        <time>2013-09-22T08:08:36Z</time>
      </trkpt>
      <trkpt lat="44.28865" lon="0.54868">
        <ele>144.82</ele>
        <time>2013-09-22T08:08:51Z</time>
      </trkpt>
      <trkpt lat="44.28849" lon="0.54882">
        <ele>147.22</ele>
        <time>2013-09-22T08:09:07Z</time>
      </trkpt>
      <trkpt lat="44.28835" lon="0.54895">
        <ele>149.62</ele>
        <time>2013-09-22T08:09:21Z</time>
      </trkpt>
      <trkpt lat="44.2883" lon="0.54901">
        <ele>151.06</ele>
        <time>2013-09-22T08:09:27Z</time>
      </trkpt>
      <trkpt lat="44.28829" lon="0.54936">
        <ele>151.54</ele>
        <time>2013-09-22T08:09:41Z</time>
      </trkpt>
      <trkpt lat="44.2883" lon="0.5499">
        <ele>152.51</ele>
        <time>2013-09-22T08:10:00Z</time>
      </trkpt>
      <trkpt lat="44.28817" lon="0.55025">
        <ele>154.91</ele>
        <time>2013-09-22T08:10:16Z</time>
      </trkpt>
      <trkpt lat="44.28805" lon="0.55053">
        <ele>157.79</ele>
        <time>2013-09-22T08:10:33Z</time>
      </trkpt>
      <trkpt lat="44.28792" lon="0.55063">
        <ele>159.72</ele>
        <time>2013-09-22T08:10:44Z</time>
      </trkpt>
      <trkpt lat="44.28776" lon="0.55066">
        <ele>163.08</ele>
        <time>2013-09-22T08:10:59Z</time>
      </trkpt>
      <trkpt lat="44.28774" lon="0.55067">
        <ele>163.56</ele>
        <time>2013-09-22T08:11:01Z</time>
      </trkpt>
      <trkpt lat="44.28759" lon="0.55074">
        <ele>167.41</ele>
        <time>2013-09-22T08:11:16Z</time>
      </trkpt>
      <trkpt lat="44.28746" lon="0.55082">
        <ele>170.29</ele>
        <time>2013-09-22T08:11:31Z</time>
      </trkpt>
      <trkpt lat="44.28733" lon="0.55091">
        <ele>172.21</ele>
        <time>2013-09-22T08:11:45Z</time>
      </trkpt>
      <trkpt lat="44.28723" lon="0.55114">
        <ele>174.14</ele>
        <time>2013-09-22T08:11:59Z</time>
      </trkpt>
      <trkpt lat="44.28709" lon="0.55151">
        <ele>175.58</ele>
        <time>2013-09-22T08:12:17Z</time>
      </trkpt>
      <trkpt lat="44.28705" lon="0.55155">
        <ele>175.58</ele>
        <time>2013-09-22T08:12:20Z</time>
      </trkpt>
      <trkpt lat="44.28691" lon="0.55155">
        <ele>177.5</ele>
        <time>2013-09-22T08:12:29Z</time>
      </trkpt>
      <trkpt lat="44.28676" lon="0.55142">
        <ele>177.98</ele>
        <time>2013-09-22T08:12:41Z</time>
      </trkpt>
      <trkpt lat="44.28676" lon="0.55142">
        <ele>178.46</ele>
        <time>2013-09-22T08:12:50Z</time>
      </trkpt>
      <trkpt lat="44.28682" lon="0.55134">
        <ele>177.98</ele>
        <time>2013-09-22T08:13:03Z</time>
      </trkpt>
      <trkpt lat="44.28684" lon="0.55131">
        <ele>178.46</ele>
        <time>2013-09-22T08:13:13Z</time>
      </trkpt>
      <trkpt lat="44.28684" lon="0.55132">
        <ele>177.98</ele>
        <time>2013-09-22T08:13:51Z</time>
      </trkpt>
      <trkpt lat="44.28684" lon="0.55131">
        <ele>178.94</ele>
        <time>2013-09-22T08:14:28Z</time>
      </trkpt>
      <trkpt lat="44.28684" lon="0.55131">
        <ele>183.27</ele>
        <time>2013-09-22T08:14:46Z</time>
      </trkpt>
      <trkpt lat="44.28684" lon="0.55131">
        <ele>177.98</ele>
        <time>2013-09-22T08:14:47Z</time>
      </trkpt>
      <trkpt lat="44.28684" lon="0.55131">
        <ele>174.62</ele>
        <time>2013-09-22T08:14:52Z</time>
      </trkpt>
      <trkpt lat="44.28684" lon="0.55131">
        <ele>178.46</ele>
        <time>2013-09-22T08:14:53Z</time>
      </trkpt>
      <trkpt lat="44.28684" lon="0.55131">
        <ele>182.79</ele>
        <time>2013-09-22T08:14:56Z</time>
      </trkpt>
      <trkpt lat="44.28684" lon="0.55131">
        <ele>179.42</ele>
        <time>2013-09-22T08:14:57Z</time>
      </trkpt>
      <trkpt lat="44.28684" lon="0.55131">
        <ele>176.06</ele>
        <time>2013-09-22T08:14:58Z</time>
      </trkpt>
      <trkpt lat="44.28684" lon="0.55131">
        <ele>177.98</ele>
        <time>2013-09-22T08:14:59Z</time>
      </trkpt>
      <trkpt lat="44.28684" lon="0.55131">
        <ele>179.42</ele>
        <time>2013-09-22T08:15:02Z</time>
      </trkpt>
      <trkpt lat="44.28683" lon="0.55131">
        <ele>178.46</ele>
        <time>2013-09-22T08:15:23Z</time>
      </trkpt>
      <trkpt lat="44.28675" lon="0.55146">
        <ele>177.98</ele>
        <time>2013-09-22T08:15:30Z</time>
      </trkpt>
      <trkpt lat="44.28635" lon="0.55198">
        <ele>177.5</ele>
        <time>2013-09-22T08:15:46Z</time>
      </trkpt>
      <trkpt lat="44.28584" lon="0.55272">
        <ele>177.02</ele>
        <time>2013-09-22T08:16:04Z</time>
      </trkpt>
      <trkpt lat="44.28543" lon="0.55322">
        <ele>178.46</ele>
        <time>2013-09-22T08:16:19Z</time>
      </trkpt>
      <trkpt lat="44.2847" lon="0.55367">
        <ele>177.98</ele>
        <time>2013-09-22T08:16:39Z</time>
      </trkpt>
      <trkpt lat="44.284" lon="0.55409">
        <ele>177.02</ele>
        <time>2013-09-22T08:16:57Z</time>
      </trkpt>
      <trkpt lat="44.28391" lon="0.55413">
        <ele>178.94</ele>
        <time>2013-09-22T08:17:07Z</time>
      </trkpt>
      <trkpt lat="44.28391" lon="0.55413">
        <ele>168.37</ele>
        <time>2013-09-22T08:17:12Z</time>
      </trkpt>
      <trkpt lat="44.28391" lon="0.55412">
        <ele>179.42</ele>
        <time>2013-09-22T08:17:13Z</time>
      </trkpt>
      <trkpt lat="44.28391" lon="0.55412">
        <ele>168.85</ele>
        <time>2013-09-22T08:17:14Z</time>
      </trkpt>
      <trkpt lat="44.28391" lon="0.55412">
        <ele>180.38</ele>
        <time>2013-09-22T08:17:15Z</time>
      </trkpt>
      <trkpt lat="44.28391" lon="0.55412">
        <ele>177.02</ele>
        <time>2013-09-22T08:17:17Z</time>
      </trkpt>
      <trkpt lat="44.28391" lon="0.55412">
        <ele>177.5</ele>
        <time>2013-09-22T08:17:18Z</time>
      </trkpt>
      <trkpt lat="44.28391" lon="0.55412">
        <ele>177.5</ele>
        <time>2013-09-22T08:17:24Z</time>
      </trkpt>
      <trkpt lat="44.2838" lon="0.55424">
        <ele>177.5</ele>
        <time>2013-09-22T08:17:31Z</time>
      </trkpt>
      <trkpt lat="44.28325" lon="0.55457">
        <ele>177.98</ele>
        <time>2013-09-22T08:17:47Z</time>
      </trkpt>
      <trkpt lat="44.28251" lon="0.55503">
        <ele>177.98</ele>
        <time>2013-09-22T08:18:06Z</time>
      </trkpt>
      <trkpt lat="44.28177" lon="0.5555">
        <ele>175.1</ele>
        <time>2013-09-22T08:18:23Z</time>
      </trkpt>
      <trkpt lat="44.28168" lon="0.55556">
        <ele>174.62</ele>
        <time>2013-09-22T08:18:30Z</time>
      </trkpt>
      <trkpt lat="44.28151" lon="0.55548">
        <ele>171.73</ele>
        <time>2013-09-22T08:18:41Z</time>
      </trkpt>
      <trkpt lat="44.28148" lon="0.55548">
        <ele>170.77</ele>
        <time>2013-09-22T08:18:42Z</time>
      </trkpt>
      <trkpt lat="44.2814" lon="0.55547">
        <ele>166.93</ele>
        <time>2013-09-22T08:18:45Z</time>
      </trkpt>
      <trkpt lat="44.28124" lon="0.55554">
        <ele>162.6</ele>
        <time>2013-09-22T08:18:49Z</time>
      </trkpt>
      <trkpt lat="44.28113" lon="0.55566">
        <ele>161.64</ele>
        <time>2013-09-22T08:18:51Z</time>
      </trkpt>
      <trkpt lat="44.28096" lon="0.55585">
        <ele>161.16</ele>
        <time>2013-09-22T08:18:54Z</time>
      </trkpt>
      <trkpt lat="44.28065" lon="0.5559">
        <ele>159.24</ele>
        <time>2013-09-22T08:19:01Z</time>
      </trkpt>
      <trkpt lat="44.28052" lon="0.55587">
        <ele>157.79</ele>
        <time>2013-09-22T08:19:04Z</time>
      </trkpt>
      <trkpt lat="44.28034" lon="0.5558">
        <ele>154.91</ele>
        <time>2013-09-22T08:19:09Z</time>
      </trkpt>
      <trkpt lat="44.28018" lon="0.55574">
        <ele>151.54</ele>
        <time>2013-09-22T08:19:14Z</time>
      </trkpt>
      <trkpt lat="44.28011" lon="0.55571">
        <ele>150.58</ele>
        <time>2013-09-22T08:19:16Z</time>
      </trkpt>
      <trkpt lat="44.28008" lon="0.55569">
        <ele>151.06</ele>
        <time>2013-09-22T08:19:18Z</time>
      </trkpt>
      <trkpt lat="44.28003" lon="0.55564">
        <ele>149.62</ele>
        <time>2013-09-22T08:19:23Z</time>
      </trkpt>
      <trkpt lat="44.27995" lon="0.55562">
        <ele>148.66</ele>
        <time>2013-09-22T08:19:26Z</time>
      </trkpt>
      <trkpt lat="44.27978" lon="0.55558">
        <ele>146.26</ele>
        <time>2013-09-22T08:19:33Z</time>
      </trkpt>
      <trkpt lat="44.27971" lon="0.55555">
        <ele>145.78</ele>
        <time>2013-09-22T08:19:35Z</time>
      </trkpt>
      <trkpt lat="44.27954" lon="0.55548">
        <ele>143.37</ele>
        <time>2013-09-22T08:19:39Z</time>
      </trkpt>
      <trkpt lat="44.27945" lon="0.55542">
        <ele>142.89</ele>
        <time>2013-09-22T08:19:42Z</time>
      </trkpt>
      <trkpt lat="44.27933" lon="0.55546">
        <ele>141.93</ele>
        <time>2013-09-22T08:19:47Z</time>
      </trkpt>
      <trkpt lat="44.27916" lon="0.55589">
        <ele>140.01</ele>
        <time>2013-09-22T08:20:00Z</time>
      </trkpt>
      <trkpt lat="44.27905" lon="0.55618">
        <ele>138.57</ele>
        <time>2013-09-22T08:20:09Z</time>
      </trkpt>
      <trkpt lat="44.279" lon="0.55634">
        <ele>137.61</ele>
        <time>2013-09-22T08:20:21Z</time>
      </trkpt>
      <trkpt lat="44.27899" lon="0.55636">
        <ele>138.09</ele>
        <time>2013-09-22T08:20:32Z</time>
      </trkpt>
      <trkpt lat="44.27893" lon="0.5565">
        <ele>136.16</ele>
        <time>2013-09-22T08:20:37Z</time>
      </trkpt>
      <trkpt lat="44.27884" lon="0.55663">
        <ele>133.76</ele>
        <time>2013-09-22T08:20:41Z</time>
      </trkpt>
      <trkpt lat="44.27872" lon="0.55673">
        <ele>130.88</ele>
        <time>2013-09-22T08:20:45Z</time>
      </trkpt>
      <trkpt lat="44.27864" lon="0.5568">
        <ele>129.43</ele>
        <time>2013-09-22T08:20:47Z</time>
      </trkpt>
      <trkpt lat="44.27849" lon="0.55693">
        <ele>127.51</ele>
        <time>2013-09-22T08:20:50Z</time>
      </trkpt>
      <trkpt lat="44.27834" lon="0.55709">
        <ele>123.19</ele>
        <time>2013-09-22T08:20:54Z</time>
      </trkpt>
      <trkpt lat="44.27819" lon="0.55728">
        <ele>120.3</ele>
        <time>2013-09-22T08:20:58Z</time>
      </trkpt>
      <trkpt lat="44.27813" lon="0.55738">
        <ele>118.86</ele>
        <time>2013-09-22T08:21:00Z</time>
      </trkpt>
      <trkpt lat="44.27807" lon="0.55748">
        <ele>117.42</ele>
        <time>2013-09-22T08:21:02Z</time>
      </trkpt>
      <trkpt lat="44.27798" lon="0.55769">
        <ele>115.01</ele>
        <time>2013-09-22T08:21:06Z</time>
      </trkpt>
      <trkpt lat="44.27786" lon="0.55792">
        <ele>114.05</ele>
        <time>2013-09-22T08:21:15Z</time>
      </trkpt>
      <trkpt lat="44.27783" lon="0.55796">
        <ele>113.57</ele>
        <time>2013-09-22T08:21:21Z</time>
      </trkpt>
      <trkpt lat="44.27777" lon="0.55819">
        <ele>109.73</ele>
        <time>2013-09-22T08:21:28Z</time>
      </trkpt>
      <trkpt lat="44.27772" lon="0.55839">
        <ele>105.88</ele>
        <time>2013-09-22T08:21:33Z</time>
      </trkpt>
      <trkpt lat="44.27771" lon="0.55844">
        <ele>105.88</ele>
        <time>2013-09-22T08:21:34Z</time>
      </trkpt>
      <trkpt lat="44.27769" lon="0.55871">
        <ele>103</ele>
        <time>2013-09-22T08:21:40Z</time>
      </trkpt>
      <trkpt lat="44.2775" lon="0.55932">
        <ele>99.63</ele>
        <time>2013-09-22T08:21:51Z</time>
      </trkpt>
      <trkpt lat="44.2774" lon="0.55964">
        <ele>98.67</ele>
        <time>2013-09-22T08:21:59Z</time>
      </trkpt>
      <trkpt lat="44.27738" lon="0.55974">
        <ele>98.19</ele>
        <time>2013-09-22T08:22:02Z</time>
      </trkpt>
      <trkpt lat="44.27728" lon="0.56006">
        <ele>96.27</ele>
        <time>2013-09-22T08:22:10Z</time>
      </trkpt>
      <trkpt lat="44.27727" lon="0.56009">
        <ele>95.79</ele>
        <time>2013-09-22T08:22:11Z</time>
      </trkpt>
      <trkpt lat="44.27723" lon="0.56024">
        <ele>95.31</ele>
        <time>2013-09-22T08:22:16Z</time>
      </trkpt>
      <trkpt lat="44.27719" lon="0.56042">
        <ele>94.83</ele>
        <time>2013-09-22T08:22:30Z</time>
      </trkpt>
      <trkpt lat="44.27718" lon="0.56044">
        <ele>94.35</ele>
        <time>2013-09-22T08:22:37Z</time>
      </trkpt>
      <trkpt lat="44.27718" lon="0.5606">
        <ele>93.39</ele>
        <time>2013-09-22T08:22:42Z</time>
      </trkpt>
      <trkpt lat="44.27705" lon="0.56079">
        <ele>93.39</ele>
        <time>2013-09-22T08:22:51Z</time>
      </trkpt>
      <trkpt lat="44.27658" lon="0.56087">
        <ele>91.94</ele>
        <time>2013-09-22T08:23:04Z</time>
      </trkpt>
      <trkpt lat="44.27597" lon="0.56089">
        <ele>89.54</ele>
        <time>2013-09-22T08:23:17Z</time>
      </trkpt>
      <trkpt lat="44.27588" lon="0.56091">
        <ele>88.58</ele>
        <time>2013-09-22T08:23:19Z</time>
      </trkpt>
      <trkpt lat="44.27566" lon="0.56102">
        <ele>87.14</ele>
        <time>2013-09-22T08:23:23Z</time>
      </trkpt>
      <trkpt lat="44.27551" lon="0.56105">
        <ele>86.18</ele>
        <time>2013-09-22T08:23:26Z</time>
      </trkpt>
      <trkpt lat="44.27527" lon="0.56098">
        <ele>86.66</ele>
        <time>2013-09-22T08:23:31Z</time>
      </trkpt>
      <trkpt lat="44.2746" lon="0.56071">
        <ele>87.62</ele>
        <time>2013-09-22T08:23:47Z</time>
      </trkpt>
      <trkpt lat="44.27402" lon="0.56052">
        <ele>87.62</ele>
        <time>2013-09-22T08:24:01Z</time>
      </trkpt>
      <trkpt lat="44.27346" lon="0.56025">
        <ele>89.06</ele>
        <time>2013-09-22T08:24:16Z</time>
      </trkpt>
      <trkpt lat="44.27332" lon="0.56014">
        <ele>89.06</ele>
        <time>2013-09-22T08:24:20Z</time>
      </trkpt>
      <trkpt lat="44.27268" lon="0.55983">
        <ele>87.14</ele>
        <time>2013-09-22T08:24:33Z</time>
      </trkpt>
      <trkpt lat="44.27263" lon="0.55981">
        <ele>86.18</ele>
        <time>2013-09-22T08:24:34Z</time>
      </trkpt>
      <trkpt lat="44.27242" lon="0.55977">
        <ele>86.66</ele>
        <time>2013-09-22T08:24:38Z</time>
      </trkpt>
      <trkpt lat="44.27214" lon="0.55976">
        <ele>86.18</ele>
        <time>2013-09-22T08:24:43Z</time>
      </trkpt>
      <trkpt lat="44.27203" lon="0.5597">
        <ele>85.69</ele>
        <time>2013-09-22T08:24:45Z</time>
      </trkpt>
      <trkpt lat="44.27189" lon="0.55962">
        <ele>85.69</ele>
        <time>2013-09-22T08:24:48Z</time>
      </trkpt>
      <trkpt lat="44.2714" lon="0.5596">
        <ele>88.1</ele>
        <time>2013-09-22T08:25:00Z</time>
      </trkpt>
      <trkpt lat="44.2711" lon="0.55951">
        <ele>88.58</ele>
        <time>2013-09-22T08:25:09Z</time>
      </trkpt>
      <trkpt lat="44.27098" lon="0.55942">
        <ele>88.1</ele>
        <time>2013-09-22T08:25:12Z</time>
      </trkpt>
      <trkpt lat="44.27067" lon="0.55914">
        <ele>87.14</ele>
        <time>2013-09-22T08:25:20Z</time>
      </trkpt>
      <trkpt lat="44.27018" lon="0.55876">
        <ele>89.54</ele>
        <time>2013-09-22T08:25:35Z</time>
      </trkpt>
      <trkpt lat="44.26977" lon="0.55844">
        <ele>91.46</ele>
        <time>2013-09-22T08:25:50Z</time>
      </trkpt>
      <trkpt lat="44.26935" lon="0.55809">
        <ele>92.9</ele>
        <time>2013-09-22T08:26:06Z</time>
      </trkpt>
      <trkpt lat="44.26903" lon="0.55768">
        <ele>95.79</ele>
        <time>2013-09-22T08:26:21Z</time>
      </trkpt>
      <trkpt lat="44.26885" lon="0.55729">
        <ele>95.79</ele>
        <time>2013-09-22T08:26:31Z</time>
      </trkpt>
      <trkpt lat="44.26874" lon="0.55707">
        <ele>95.31</ele>
        <time>2013-09-22T08:26:35Z</time>
      </trkpt>
      <trkpt lat="44.26859" lon="0.55671">
        <ele>93.39</ele>
        <time>2013-09-22T08:26:40Z</time>
      </trkpt>
      <trkpt lat="44.26841" lon="0.55607">
        <ele>91.46</ele>
        <time>2013-09-22T08:26:48Z</time>
      </trkpt>
      <trkpt lat="44.26833" lon="0.55593">
        <ele>90.98</ele>
        <time>2013-09-22T08:26:50Z</time>
      </trkpt>
      <trkpt lat="44.26824" lon="0.55581">
        <ele>89.54</ele>
        <time>2013-09-22T08:26:52Z</time>
      </trkpt>
      <trkpt lat="44.26813" lon="0.5557">
        <ele>88.58</ele>
        <time>2013-09-22T08:26:54Z</time>
      </trkpt>
      <trkpt lat="44.26774" lon="0.55526">
        <ele>86.66</ele>
        <time>2013-09-22T08:27:03Z</time>
      </trkpt>
      <trkpt lat="44.26761" lon="0.55505">
        <ele>87.62</ele>
        <time>2013-09-22T08:27:11Z</time>
      </trkpt>
      <trkpt lat="44.26747" lon="0.5549">
        <ele>87.62</ele>
        <time>2013-09-22T08:27:19Z</time>
      </trkpt>
      <trkpt lat="44.26746" lon="0.55476">
        <ele>89.54</ele>
        <time>2013-09-22T08:27:27Z</time>
      </trkpt>
      <trkpt lat="44.26761" lon="0.55465">
        <ele>91.94</ele>
        <time>2013-09-22T08:27:41Z</time>
      </trkpt>
      <trkpt lat="44.26774" lon="0.55456">
        <ele>94.35</ele>
        <time>2013-09-22T08:27:54Z</time>
      </trkpt>
      <trkpt lat="44.26785" lon="0.55451">
        <ele>97.23</ele>
        <time>2013-09-22T08:28:06Z</time>
      </trkpt>
      <trkpt lat="44.26797" lon="0.55445">
        <ele>99.63</ele>
        <time>2013-09-22T08:28:19Z</time>
      </trkpt>
      <trkpt lat="44.26812" lon="0.55439">
        <ele>101.56</ele>
        <time>2013-09-22T08:28:33Z</time>
      </trkpt>
      <trkpt lat="44.26821" lon="0.55431">
        <ele>103.48</ele>
        <time>2013-09-22T08:28:43Z</time>
      </trkpt>
      <trkpt lat="44.26828" lon="0.55415">
        <ele>105.88</ele>
        <time>2013-09-22T08:28:56Z</time>
      </trkpt>
      <trkpt lat="44.26827" lon="0.55412">
        <ele>106.36</ele>
        <time>2013-09-22T08:28:58Z</time>
      </trkpt>
      <trkpt lat="44.26822" lon="0.55394">
        <ele>108.29</ele>
        <time>2013-09-22T08:29:12Z</time>
      </trkpt>
      <trkpt lat="44.26817" lon="0.55384">
        <ele>109.73</ele>
        <time>2013-09-22T08:29:20Z</time>
      </trkpt>
      <trkpt lat="44.2681" lon="0.5537">
        <ele>111.17</ele>
        <time>2013-09-22T08:29:30Z</time>
      </trkpt>
      <trkpt lat="44.26808" lon="0.55352">
        <ele>112.13</ele>
        <time>2013-09-22T08:29:41Z</time>
      </trkpt>
      <trkpt lat="44.26808" lon="0.55344">
        <ele>113.09</ele>
        <time>2013-09-22T08:29:46Z</time>
      </trkpt>
      <trkpt lat="44.26808" lon="0.55334">
        <ele>113.57</ele>
        <time>2013-09-22T08:29:50Z</time>
      </trkpt>
      <trkpt lat="44.26805" lon="0.55309">
        <ele>115.5</ele>
        <time>2013-09-22T08:30:04Z</time>
      </trkpt>
      <trkpt lat="44.26805" lon="0.55304">
        <ele>115.98</ele>
        <time>2013-09-22T08:30:07Z</time>
      </trkpt>
      <trkpt lat="44.26805" lon="0.5528">
        <ele>117.9</ele>
        <time>2013-09-22T08:30:19Z</time>
      </trkpt>
      <trkpt lat="44.26805" lon="0.55278">
        <ele>118.38</ele>
        <time>2013-09-22T08:30:20Z</time>
      </trkpt>
      <trkpt lat="44.26802" lon="0.55265">
        <ele>119.34</ele>
        <time>2013-09-22T08:30:27Z</time>
      </trkpt>
      <trkpt lat="44.26805" lon="0.55245">
        <ele>120.78</ele>
        <time>2013-09-22T08:30:37Z</time>
      </trkpt>
      <trkpt lat="44.26808" lon="0.55237">
        <ele>121.74</ele>
        <time>2013-09-22T08:30:40Z</time>
      </trkpt>
      <trkpt lat="44.26813" lon="0.55231">
        <ele>122.71</ele>
        <time>2013-09-22T08:30:44Z</time>
      </trkpt>
      <trkpt lat="44.26815" lon="0.55216">
        <ele>125.11</ele>
        <time>2013-09-22T08:30:57Z</time>
      </trkpt>
      <trkpt lat="44.2681" lon="0.55195">
        <ele>127.51</ele>
        <time>2013-09-22T08:31:12Z</time>
      </trkpt>
      <trkpt lat="44.26808" lon="0.55183">
        <ele>129.43</ele>
        <time>2013-09-22T08:31:24Z</time>
      </trkpt>
      <trkpt lat="44.26807" lon="0.5517">
        <ele>130.88</ele>
        <time>2013-09-22T08:31:36Z</time>
      </trkpt>
      <trkpt lat="44.26805" lon="0.55155">
        <ele>133.28</ele>
        <time>2013-09-22T08:31:49Z</time>
      </trkpt>
      <trkpt lat="44.26805" lon="0.55146">
        <ele>134.24</ele>
        <time>2013-09-22T08:32:02Z</time>
      </trkpt>
      <trkpt lat="44.26804" lon="0.55142">
        <ele>134.72</ele>
        <time>2013-09-22T08:32:05Z</time>
      </trkpt>
      <trkpt lat="44.26802" lon="0.55114">
        <ele>136.64</ele>
        <time>2013-09-22T08:32:20Z</time>
      </trkpt>
      <trkpt lat="44.26805" lon="0.55101">
        <ele>138.09</ele>
        <time>2013-09-22T08:32:28Z</time>
      </trkpt>
      <trkpt lat="44.26806" lon="0.55095">
        <ele>139.05</ele>
        <time>2013-09-22T08:32:31Z</time>
      </trkpt>
      <trkpt lat="44.26799" lon="0.55082">
        <ele>150.1</ele>
        <time>2013-09-22T08:32:37Z</time>
      </trkpt>
      <trkpt lat="44.26797" lon="0.5508">
        <ele>148.66</ele>
        <time>2013-09-22T08:32:38Z</time>
      </trkpt>
      <trkpt lat="44.26795" lon="0.55078">
        <ele>139.53</ele>
        <time>2013-09-22T08:32:39Z</time>
      </trkpt>
      <trkpt lat="44.26774" lon="0.55043">
        <ele>139.05</ele>
        <time>2013-09-22T08:32:51Z</time>
      </trkpt>
      <trkpt lat="44.26759" lon="0.55006">
        <ele>139.05</ele>
        <time>2013-09-22T08:33:02Z</time>
      </trkpt>
      <trkpt lat="44.26751" lon="0.54965">
        <ele>140.01</ele>
        <time>2013-09-22T08:33:13Z</time>
      </trkpt>
      <trkpt lat="44.26746" lon="0.54928">
        <ele>140.01</ele>
        <time>2013-09-22T08:33:25Z</time>
      </trkpt>
      <trkpt lat="44.26728" lon="0.54878">
        <ele>139.05</ele>
        <time>2013-09-22T08:33:38Z</time>
      </trkpt>
      <trkpt lat="44.267" lon="0.54834">
        <ele>139.05</ele>
        <time>2013-09-22T08:33:51Z</time>
      </trkpt>
      <trkpt lat="44.26692" lon="0.54814">
        <ele>139.05</ele>
        <time>2013-09-22T08:33:57Z</time>
      </trkpt>
      <trkpt lat="44.26683" lon="0.54786">
        <ele>138.57</ele>
        <time>2013-09-22T08:34:04Z</time>
      </trkpt>
      <trkpt lat="44.26667" lon="0.54771">
        <ele>139.05</ele>
        <time>2013-09-22T08:34:10Z</time>
      </trkpt>
      <trkpt lat="44.26643" lon="0.54745">
        <ele>140.49</ele>
        <time>2013-09-22T08:34:23Z</time>
      </trkpt>
      <trkpt lat="44.26642" lon="0.54744">
        <ele>140.49</ele>
        <time>2013-09-22T08:34:33Z</time>
      </trkpt>
      <trkpt lat="44.26637" lon="0.54742">
        <ele>139.05</ele>
        <time>2013-09-22T08:34:47Z</time>
      </trkpt>
      <trkpt lat="44.26627" lon="0.54733">
        <ele>139.05</ele>
        <time>2013-09-22T08:34:52Z</time>
      </trkpt>
      <trkpt lat="44.26616" lon="0.54722">
        <ele>139.05</ele>
        <time>2013-09-22T08:34:57Z</time>
      </trkpt>
      <trkpt lat="44.26579" lon="0.54675">
        <ele>138.57</ele>
        <time>2013-09-22T08:35:10Z</time>
      </trkpt>
      <trkpt lat="44.2655" lon="0.54627">
        <ele>138.57</ele>
        <time>2013-09-22T08:35:21Z</time>
      </trkpt>
      <trkpt lat="44.26535" lon="0.5458">
        <ele>139.05</ele>
        <time>2013-09-22T08:35:31Z</time>
      </trkpt>
      <trkpt lat="44.2651" lon="0.54528">
        <ele>139.53</ele>
        <time>2013-09-22T08:35:43Z</time>
      </trkpt>
      <trkpt lat="44.265" lon="0.54473">
        <ele>139.53</ele>
        <time>2013-09-22T08:35:54Z</time>
      </trkpt>
      <trkpt lat="44.265" lon="0.54425">
        <ele>139.53</ele>
        <time>2013-09-22T08:36:03Z</time>
      </trkpt>
      <trkpt lat="44.26478" lon="0.54337">
        <ele>137.13</ele>
        <time>2013-09-22T08:36:17Z</time>
      </trkpt>
      <trkpt lat="44.26455" lon="0.54285">
        <ele>136.64</ele>
        <time>2013-09-22T08:36:28Z</time>
      </trkpt>
      <trkpt lat="44.26445" lon="0.54283">
        <ele>135.68</ele>
        <time>2013-09-22T08:36:33Z</time>
      </trkpt>
      <trkpt lat="44.26443" lon="0.54282">
        <ele>135.68</ele>
        <time>2013-09-22T08:36:42Z</time>
      </trkpt>
      <trkpt lat="44.26452" lon="0.54276">
        <ele>136.16</ele>
        <time>2013-09-22T08:36:53Z</time>
      </trkpt>
      <trkpt lat="44.26451" lon="0.54272">
        <ele>135.68</ele>
        <time>2013-09-22T08:36:55Z</time>
      </trkpt>
      <trkpt lat="44.26448" lon="0.54246">
        <ele>132.32</ele>
        <time>2013-09-22T08:37:08Z</time>
      </trkpt>
      <trkpt lat="44.26455" lon="0.54229">
        <ele>129.43</ele>
        <time>2013-09-22T08:37:15Z</time>
      </trkpt>
      <trkpt lat="44.26457" lon="0.54221">
        <ele>127.51</ele>
        <time>2013-09-22T08:37:19Z</time>
      </trkpt>
      <trkpt lat="44.26455" lon="0.54216">
        <ele>125.11</ele>
        <time>2013-09-22T08:37:24Z</time>
      </trkpt>
      <trkpt lat="44.26444" lon="0.54217">
        <ele>123.19</ele>
        <time>2013-09-22T08:37:28Z</time>
      </trkpt>
      <trkpt lat="44.26425" lon="0.54217">
        <ele>119.34</ele>
        <time>2013-09-22T08:37:33Z</time>
      </trkpt>
      <trkpt lat="44.26409" lon="0.5421">
        <ele>115.5</ele>
        <time>2013-09-22T08:37:38Z</time>
      </trkpt>
      <trkpt lat="44.26392" lon="0.54199">
        <ele>111.65</ele>
        <time>2013-09-22T08:37:43Z</time>
      </trkpt>
      <trkpt lat="44.26375" lon="0.54185">
        <ele>107.81</ele>
        <time>2013-09-22T08:37:47Z</time>
      </trkpt>
      <trkpt lat="44.2635" lon="0.54167">
        <ele>102.04</ele>
        <time>2013-09-22T08:37:51Z</time>
      </trkpt>
      <trkpt lat="44.26311" lon="0.54158">
        <ele>96.75</ele>
        <time>2013-09-22T08:37:57Z</time>
      </trkpt>
      <trkpt lat="44.26286" lon="0.54153">
        <ele>92.42</ele>
        <time>2013-09-22T08:38:01Z</time>
      </trkpt>
      <trkpt lat="44.26258" lon="0.54149">
        <ele>90.02</ele>
        <time>2013-09-22T08:38:05Z</time>
      </trkpt>
      <trkpt lat="44.26222" lon="0.5414">
        <ele>85.21</ele>
        <time>2013-09-22T08:38:10Z</time>
      </trkpt>
      <trkpt lat="44.26208" lon="0.54137">
        <ele>83.29</ele>
        <time>2013-09-22T08:38:12Z</time>
      </trkpt>
      <trkpt lat="44.26191" lon="0.54127">
        <ele>80.41</ele>
        <time>2013-09-22T08:38:15Z</time>
      </trkpt>
      <trkpt lat="44.26174" lon="0.54107">
        <ele>76.56</ele>
        <time>2013-09-22T08:38:19Z</time>
      </trkpt>
      <trkpt lat="44.26152" lon="0.54081">
        <ele>72.72</ele>
        <time>2013-09-22T08:38:23Z</time>
      </trkpt>
      <trkpt lat="44.26146" lon="0.54075">
        <ele>71.76</ele>
        <time>2013-09-22T08:38:24Z</time>
      </trkpt>
      <trkpt lat="44.26137" lon="0.54063">
        <ele>70.79</ele>
        <time>2013-09-22T08:38:26Z</time>
      </trkpt>
      <trkpt lat="44.2613" lon="0.54051">
        <ele>69.83</ele>
        <time>2013-09-22T08:38:28Z</time>
      </trkpt>
      <trkpt lat="44.26112" lon="0.54014">
        <ele>68.39</ele>
        <time>2013-09-22T08:38:33Z</time>
      </trkpt>
      <trkpt lat="44.261" lon="0.54">
        <ele>67.43</ele>
        <time>2013-09-22T08:38:41Z</time>
      </trkpt>
      <trkpt lat="44.26099" lon="0.53997">
        <ele>63.58</ele>
        <time>2013-09-22T08:38:43Z</time>
      </trkpt>
      <trkpt lat="44.26099" lon="0.53997">
        <ele>64.55</ele>
        <time>2013-09-22T08:38:44Z</time>
      </trkpt>
      <trkpt lat="44.26098" lon="0.53996">
        <ele>70.79</ele>
        <time>2013-09-22T08:38:45Z</time>
      </trkpt>
      <trkpt lat="44.26098" lon="0.53996">
        <ele>69.35</ele>
        <time>2013-09-22T08:38:46Z</time>
      </trkpt>
      <trkpt lat="44.26098" lon="0.53996">
        <ele>67.91</ele>
        <time>2013-09-22T08:38:48Z</time>
      </trkpt>
      <trkpt lat="44.26096" lon="0.53993">
        <ele>67.91</ele>
        <time>2013-09-22T08:38:58Z</time>
      </trkpt>
      <trkpt lat="44.26085" lon="0.53981">
        <ele>68.39</ele>
        <time>2013-09-22T08:39:08Z</time>
      </trkpt>
      <trkpt lat="44.26093" lon="0.53972">
        <ele>67.91</ele>
        <time>2013-09-22T08:39:16Z</time>
      </trkpt>
      <trkpt lat="44.26109" lon="0.5394">
        <ele>70.31</ele>
        <time>2013-09-22T08:39:29Z</time>
      </trkpt>
      <trkpt lat="44.26121" lon="0.5392">
        <ele>73.2</ele>
        <time>2013-09-22T08:39:39Z</time>
      </trkpt>
      <trkpt lat="44.26136" lon="0.53896">
        <ele>76.56</ele>
        <time>2013-09-22T08:39:51Z</time>
      </trkpt>
      <trkpt lat="44.26154" lon="0.53877">
        <ele>79.45</ele>
        <time>2013-09-22T08:40:04Z</time>
      </trkpt>
      <trkpt lat="44.2617" lon="0.53863">
        <ele>82.33</ele>
        <time>2013-09-22T08:40:16Z</time>
      </trkpt>
      <trkpt lat="44.26193" lon="0.53841">
        <ele>84.73</ele>
        <time>2013-09-22T08:40:33Z</time>
      </trkpt>
      <trkpt lat="44.26211" lon="0.53824">
        <ele>87.62</ele>
        <time>2013-09-22T08:40:47Z</time>
      </trkpt>
      <trkpt lat="44.26235" lon="0.538">
        <ele>90.98</ele>
        <time>2013-09-22T08:41:05Z</time>
      </trkpt>
      <trkpt lat="44.26255" lon="0.53778">
        <ele>93.87</ele>
        <time>2013-09-22T08:41:22Z</time>
      </trkpt>
      <trkpt lat="44.26272" lon="0.5376">
        <ele>97.23</ele>
        <time>2013-09-22T08:41:36Z</time>
      </trkpt>
      <trkpt lat="44.26288" lon="0.53744">
        <ele>100.11</ele>
        <time>2013-09-22T08:41:49Z</time>
      </trkpt>
      <trkpt lat="44.26297" lon="0.5373">
        <ele>102.52</ele>
        <time>2013-09-22T08:41:58Z</time>
      </trkpt>
      <trkpt lat="44.26303" lon="0.53723">
        <ele>103.96</ele>
        <time>2013-09-22T08:42:04Z</time>
      </trkpt>
      <trkpt lat="44.26315" lon="0.53705">
        <ele>107.32</ele>
        <time>2013-09-22T08:42:16Z</time>
      </trkpt>
      <trkpt lat="44.26323" lon="0.53691">
        <ele>109.73</ele>
        <time>2013-09-22T08:42:24Z</time>
      </trkpt>
      <trkpt lat="44.26328" lon="0.53683">
        <ele>110.69</ele>
        <time>2013-09-22T08:42:29Z</time>
      </trkpt>
      <trkpt lat="44.26339" lon="0.53665">
        <ele>113.09</ele>
        <time>2013-09-22T08:42:41Z</time>
      </trkpt>
      <trkpt lat="44.2635" lon="0.53659">
        <ele>115.01</ele>
        <time>2013-09-22T08:42:50Z</time>
      </trkpt>
      <trkpt lat="44.2636" lon="0.53665">
        <ele>117.9</ele>
        <time>2013-09-22T08:43:02Z</time>
      </trkpt>
      <trkpt lat="44.26364" lon="0.53669">
        <ele>118.86</ele>
        <time>2013-09-22T08:43:06Z</time>
      </trkpt>
      <trkpt lat="44.26366" lon="0.53672">
        <ele>119.34</ele>
        <time>2013-09-22T08:43:10Z</time>
      </trkpt>
      <trkpt lat="44.26375" lon="0.53685">
        <ele>122.22</ele>
        <time>2013-09-22T08:43:24Z</time>
      </trkpt>
      <trkpt lat="44.26389" lon="0.53695">
        <ele>125.11</ele>
        <time>2013-09-22T08:43:40Z</time>
      </trkpt>
      <trkpt lat="44.26403" lon="0.53698">
        <ele>127.51</ele>
        <time>2013-09-22T08:43:55Z</time>
      </trkpt>
      <trkpt lat="44.26408" lon="0.53698">
        <ele>128.47</ele>
        <time>2013-09-22T08:44:01Z</time>
      </trkpt>
      <trkpt lat="44.2642" lon="0.53692">
        <ele>131.36</ele>
        <time>2013-09-22T08:44:14Z</time>
      </trkpt>
      <trkpt lat="44.26433" lon="0.53691">
        <ele>133.28</ele>
        <time>2013-09-22T08:44:27Z</time>
      </trkpt>
      <trkpt lat="44.26444" lon="0.53682">
        <ele>134.24</ele>
        <time>2013-09-22T08:44:36Z</time>
      </trkpt>
      <trkpt lat="44.26447" lon="0.53675">
        <ele>135.2</ele>
        <time>2013-09-22T08:44:41Z</time>
      </trkpt>
      <trkpt lat="44.26457" lon="0.5364">
        <ele>139.05</ele>
        <time>2013-09-22T08:45:01Z</time>
      </trkpt>
      <trkpt lat="44.26466" lon="0.53615">
        <ele>140.49</ele>
        <time>2013-09-22T08:45:16Z</time>
      </trkpt>
      <trkpt lat="44.2648" lon="0.53592">
        <ele>143.85</ele>
        <time>2013-09-22T08:45:32Z</time>
      </trkpt>
      <trkpt lat="44.26498" lon="0.5357">
        <ele>146.26</ele>
        <time>2013-09-22T08:45:49Z</time>
      </trkpt>
      <trkpt lat="44.26517" lon="0.53556">
        <ele>149.14</ele>
        <time>2013-09-22T08:46:05Z</time>
      </trkpt>
      <trkpt lat="44.26541" lon="0.5354">
        <ele>152.03</ele>
        <time>2013-09-22T08:46:25Z</time>
      </trkpt>
      <trkpt lat="44.26564" lon="0.53526">
        <ele>155.39</ele>
        <time>2013-09-22T08:46:42Z</time>
      </trkpt>
      <trkpt lat="44.26584" lon="0.53507">
        <ele>158.27</ele>
        <time>2013-09-22T08:46:59Z</time>
      </trkpt>
      <trkpt lat="44.26603" lon="0.53487">
        <ele>161.16</ele>
        <time>2013-09-22T08:47:16Z</time>
      </trkpt>
      <trkpt lat="44.26615" lon="0.5347">
        <ele>163.08</ele>
        <time>2013-09-22T08:47:28Z</time>
      </trkpt>
      <trkpt lat="44.26617" lon="0.5346">
        <ele>164.52</ele>
        <time>2013-09-22T08:47:34Z</time>
      </trkpt>
      <trkpt lat="44.26619" lon="0.53449">
        <ele>165.96</ele>
        <time>2013-09-22T08:47:40Z</time>
      </trkpt>
      <trkpt lat="44.2662" lon="0.5344">
        <ele>166.93</ele>
        <time>2013-09-22T08:47:44Z</time>
      </trkpt>
      <trkpt lat="44.26626" lon="0.53392">
        <ele>167.41</ele>
        <time>2013-09-22T08:47:58Z</time>
      </trkpt>
      <trkpt lat="44.26645" lon="0.53318">
        <ele>168.85</ele>
        <time>2013-09-22T08:48:14Z</time>
      </trkpt>
      <trkpt lat="44.2665" lon="0.53303">
        <ele>168.37</ele>
        <time>2013-09-22T08:48:17Z</time>
      </trkpt>
      <trkpt lat="44.2669" lon="0.53224">
        <ele>165.96</ele>
        <time>2013-09-22T08:48:30Z</time>
      </trkpt>
      <trkpt lat="44.26704" lon="0.53199">
        <ele>164.52</ele>
        <time>2013-09-22T08:48:33Z</time>
      </trkpt>
      <trkpt lat="44.26713" lon="0.53182">
        <ele>163.56</ele>
        <time>2013-09-22T08:48:35Z</time>
      </trkpt>
      <trkpt lat="44.26722" lon="0.53163">
        <ele>162.12</ele>
        <time>2013-09-22T08:48:37Z</time>
      </trkpt>
      <trkpt lat="44.26749" lon="0.53132">
        <ele>159.72</ele>
        <time>2013-09-22T08:48:41Z</time>
      </trkpt>
      <trkpt lat="44.26775" lon="0.53099">
        <ele>155.87</ele>
        <time>2013-09-22T08:48:45Z</time>
      </trkpt>
      <trkpt lat="44.26795" lon="0.53067">
        <ele>153.95</ele>
        <time>2013-09-22T08:48:48Z</time>
      </trkpt>
      <trkpt lat="44.26814" lon="0.53034">
        <ele>151.06</ele>
        <time>2013-09-22T08:48:51Z</time>
      </trkpt>
      <trkpt lat="44.2682" lon="0.53023">
        <ele>150.58</ele>
        <time>2013-09-22T08:48:52Z</time>
      </trkpt>
      <trkpt lat="44.26833" lon="0.53001">
        <ele>148.66</ele>
        <time>2013-09-22T08:48:54Z</time>
      </trkpt>
      <trkpt lat="44.26863" lon="0.5296">
        <ele>145.78</ele>
        <time>2013-09-22T08:48:58Z</time>
      </trkpt>
      <trkpt lat="44.26878" lon="0.52923">
        <ele>141.45</ele>
        <time>2013-09-22T08:49:01Z</time>
      </trkpt>
      <trkpt lat="44.26885" lon="0.52895">
        <ele>138.57</ele>
        <time>2013-09-22T08:49:04Z</time>
      </trkpt>
      <trkpt lat="44.26888" lon="0.52883">
        <ele>137.61</ele>
        <time>2013-09-22T08:49:06Z</time>
      </trkpt>
      <trkpt lat="44.2689" lon="0.52876">
        <ele>136.64</ele>
        <time>2013-09-22T08:49:08Z</time>
      </trkpt>
      <trkpt lat="44.26901" lon="0.52876">
        <ele>136.64</ele>
        <time>2013-09-22T08:49:12Z</time>
      </trkpt>
      <trkpt lat="44.26952" lon="0.529">
        <ele>138.57</ele>
        <time>2013-09-22T08:49:27Z</time>
      </trkpt>
      <trkpt lat="44.27014" lon="0.52926">
        <ele>141.93</ele>
        <time>2013-09-22T08:49:47Z</time>
      </trkpt>
      <trkpt lat="44.27054" lon="0.52926">
        <ele>144.82</ele>
        <time>2013-09-22T08:50:02Z</time>
      </trkpt>
      <trkpt lat="44.27078" lon="0.52887">
        <ele>147.7</ele>
        <time>2013-09-22T08:50:17Z</time>
      </trkpt>
      <trkpt lat="44.27077" lon="0.52842">
        <ele>150.1</ele>
        <time>2013-09-22T08:50:32Z</time>
      </trkpt>
      <trkpt lat="44.27069" lon="0.52785">
        <ele>152.51</ele>
        <time>2013-09-22T08:50:51Z</time>
      </trkpt>
      <trkpt lat="44.27064" lon="0.52733">
        <ele>154.43</ele>
        <time>2013-09-22T08:51:08Z</time>
      </trkpt>
      <trkpt lat="44.27058" lon="0.52685">
        <ele>157.31</ele>
        <time>2013-09-22T08:51:23Z</time>
      </trkpt>
      <trkpt lat="44.27053" lon="0.5264">
        <ele>158.75</ele>
        <time>2013-09-22T08:51:37Z</time>
      </trkpt>
      <trkpt lat="44.27048" lon="0.52587">
        <ele>161.64</ele>
        <time>2013-09-22T08:51:54Z</time>
      </trkpt>
      <trkpt lat="44.27055" lon="0.52553">
        <ele>164.04</ele>
        <time>2013-09-22T08:52:07Z</time>
      </trkpt>
      <trkpt lat="44.2707" lon="0.52528">
        <ele>166.45</ele>
        <time>2013-09-22T08:52:19Z</time>
      </trkpt>
      <trkpt lat="44.27077" lon="0.52513">
        <ele>166.93</ele>
        <time>2013-09-22T08:52:25Z</time>
      </trkpt>
      <trkpt lat="44.27084" lon="0.52514">
        <ele>167.41</ele>
        <time>2013-09-22T08:52:30Z</time>
      </trkpt>
      <trkpt lat="44.27096" lon="0.52508">
        <ele>167.41</ele>
        <time>2013-09-22T08:52:43Z</time>
      </trkpt>
      <trkpt lat="44.27096" lon="0.52508">
        <ele>165.96</ele>
        <time>2013-09-22T08:52:48Z</time>
      </trkpt>
      <trkpt lat="44.27096" lon="0.52508">
        <ele>170.29</ele>
        <time>2013-09-22T08:52:53Z</time>
      </trkpt>
    </trkseg>
  </trk>
</gpx>